<?xml version='1.0' encoding='UTF-8'?><gpx version="1.1" creator="JPX - https://github.com/jenetics/jpx" xmlns="http://www.topografix.com/GPX/1/1"><trk><trkseg><trkpt lat="41.104818839418215" lon="20.078312240628772"><ele>115.99999999999999</ele><time>2026-04-29T07:53:20.999Z</time></trkpt><trkpt lat="41.104877867809066" lon="20.078355333724883"><ele>116.0</ele><time>2026-04-29T07:53:25.999Z</time></trkpt><trkpt lat="41.10489391781252" lon="20.078437392584643"><ele>116.0</ele><time>2026-04-29T07:53:27.999Z</time></trkpt><trkpt lat="41.1048831293458" lon="20.07852851037057"><ele>116.0</ele><time>2026-04-29T07:53:28.999Z</time></trkpt><trkpt lat="41.10487341902266" lon="20.078649676614255"><ele>115.99999999999999</ele><time>2026-04-29T07:53:30.999Z</time></trkpt><trkpt lat="41.10486699857016" lon="20.078780347668133"><ele>116.0</ele><time>2026-04-29T07:53:32.999Z</time></trkpt><trkpt lat="41.10485836021971" lon="20.078910781997095"><ele>116.00000000000001</ele><time>2026-04-29T07:53:34.999Z</time></trkpt><trkpt lat="41.10485297467483" lon="20.07901014379903"><ele>116.0</ele><time>2026-04-29T07:53:36.999Z</time></trkpt><trkpt lat="41.10485324454073" lon="20.079111250230795"><ele>116.00000000000001</ele><time>2026-04-29T07:53:39.999Z</time></trkpt><trkpt lat="41.10484429326375" lon="20.07919869390746"><ele>116.00000000000001</ele><time>2026-04-29T07:53:42.999Z</time></trkpt><trkpt lat="41.1048266047417" lon="20.079298158223985"><ele>116.0</ele><time>2026-04-29T07:53:46.999Z</time></trkpt><trkpt lat="41.10484335704653" lon="20.079385398039886"><ele>116.00000000000001</ele><time>2026-04-29T07:55:24.999Z</time></trkpt><trkpt lat="41.10483852131195" lon="20.07949889906121"><ele>116.00000000000001</ele><time>2026-04-29T07:57:52.999Z</time></trkpt><trkpt lat="41.10483950249866" lon="20.079645282197124"><ele>116.0</ele><time>2026-04-29T07:57:54.999Z</time></trkpt><trkpt lat="41.104827179436384" lon="20.079784233147745"><ele>116.0</ele><time>2026-04-29T07:57:55.999Z</time></trkpt><trkpt lat="41.104814823603235" lon="20.07996477409115"><ele>116.0</ele><time>2026-04-29T07:57:56.999Z</time></trkpt><trkpt lat="41.10480419213732" lon="20.080107416865086"><ele>116.0</ele><time>2026-04-29T07:57:57.999Z</time></trkpt><trkpt lat="41.104794047277636" lon="20.08022430037351"><ele>116.0</ele><time>2026-04-29T07:57:58.999Z</time></trkpt><trkpt lat="41.10478748500618" lon="20.08032743030521"><ele>116.19999999999999</ele><time>2026-04-29T07:57:59.999Z</time></trkpt><trkpt lat="41.10477503997759" lon="20.080425317956195"><ele>116.39999999999999</ele><time>2026-04-29T07:58:00.999Z</time></trkpt><trkpt lat="41.10476401741357" lon="20.080509474569162"><ele>116.6</ele><time>2026-04-29T07:58:01.999Z</time></trkpt><trkpt lat="41.10475786569458" lon="20.080658473599744"><ele>116.8</ele><time>2026-04-29T07:58:03.999Z</time></trkpt><trkpt lat="41.104761567625886" lon="20.080811561025364"><ele>117.0</ele><time>2026-04-29T07:58:05.999Z</time></trkpt><trkpt lat="41.10476842641446" lon="20.080954503618173"><ele>117.0</ele><time>2026-04-29T07:58:07.999Z</time></trkpt><trkpt lat="41.104764869266674" lon="20.081112870070125"><ele>117.0</ele><time>2026-04-29T07:58:09.999Z</time></trkpt><trkpt lat="41.104759074344415" lon="20.081198197134107"><ele>117.0</ele><time>2026-04-29T07:58:10.999Z</time></trkpt><trkpt lat="41.10475457282109" lon="20.081284135871424"><ele>117.0</ele><time>2026-04-29T07:58:11.999Z</time></trkpt><trkpt lat="41.10474607277642" lon="20.081417789927944"><ele>117.0</ele><time>2026-04-29T07:58:13.999Z</time></trkpt><trkpt lat="41.104743905444984" lon="20.081530105962194"><ele>117.0</ele><time>2026-04-29T07:58:16Z</time></trkpt><trkpt lat="41.1047355450218" lon="20.081615986037807"><ele>117.16666666666667</ele><time>2026-04-29T07:58:18Z</time></trkpt><trkpt lat="41.10473427838798" lon="20.08170514445573"><ele>117.33333333333334</ele><time>2026-04-29T07:58:22Z</time></trkpt><trkpt lat="41.104734121246175" lon="20.081793296639248"><ele>117.5</ele><time>2026-04-29T07:58:32Z</time></trkpt><trkpt lat="41.10473001390556" lon="20.081894597877994"><ele>117.66666666666667</ele><time>2026-04-29T07:58:42Z</time></trkpt><trkpt lat="41.10484844766507" lon="20.081913475960988"><ele>117.83333333333334</ele><time>2026-04-29T07:58:43Z</time></trkpt><trkpt lat="41.10493459002019" lon="20.081927542112847"><ele>118.0</ele><time>2026-04-29T07:58:45Z</time></trkpt><trkpt lat="41.105017697057114" lon="20.081929217663006"><ele>118.00000000000001</ele><time>2026-04-29T07:58:47Z</time></trkpt><trkpt lat="41.10513432252612" lon="20.081925612463998"><ele>118.0</ele><time>2026-04-29T07:58:49Z</time></trkpt><trkpt lat="41.10520302772863" lon="20.08193213972755"><ele>118.0</ele><time>2026-04-29T07:58:50Z</time></trkpt><trkpt lat="41.10527955242271" lon="20.081928035008364"><ele>118.0</ele><time>2026-04-29T07:58:51Z</time></trkpt><trkpt lat="41.105351535952764" lon="20.081923167022143"><ele>118.00000000000001</ele><time>2026-04-29T07:58:52Z</time></trkpt><trkpt lat="41.10543934084262" lon="20.081914448564575"><ele>118.0</ele><time>2026-04-29T07:58:53Z</time></trkpt><trkpt lat="41.10552276346693" lon="20.08191604731993"><ele>118.00000000000001</ele><time>2026-04-29T07:58:54Z</time></trkpt><trkpt lat="41.10560655087053" lon="20.08192820647281"><ele>118.0</ele><time>2026-04-29T07:58:55Z</time></trkpt><trkpt lat="41.105683415727746" lon="20.08194075276442"><ele>118.0</ele><time>2026-04-29T07:58:56Z</time></trkpt><trkpt lat="41.105766080602244" lon="20.081944759282575"><ele>118.0</ele><time>2026-04-29T07:58:57Z</time></trkpt><trkpt lat="41.10584876787299" lon="20.081950001615773"><ele>118.00000000000001</ele><time>2026-04-29T07:58:58Z</time></trkpt><trkpt lat="41.10593643345214" lon="20.081958817222056"><ele>118.0</ele><time>2026-04-29T07:58:59Z</time></trkpt><trkpt lat="41.10602622076762" lon="20.08196859711981"><ele>118.16666666666667</ele><time>2026-04-29T07:59:00Z</time></trkpt><trkpt lat="41.10611787297827" lon="20.081972098763334"><ele>118.33333333333334</ele><time>2026-04-29T07:59:01Z</time></trkpt><trkpt lat="41.10620246235031" lon="20.081976934619394"><ele>118.5</ele><time>2026-04-29T07:59:02Z</time></trkpt><trkpt lat="41.10629086949511" lon="20.08198838573941"><ele>118.66666666666666</ele><time>2026-04-29T07:59:03Z</time></trkpt><trkpt lat="41.106381313745075" lon="20.08198791295401"><ele>118.83333333333333</ele><time>2026-04-29T07:59:04Z</time></trkpt><trkpt lat="41.106470241378155" lon="20.081996193025574"><ele>119.0</ele><time>2026-04-29T07:59:05Z</time></trkpt><trkpt lat="41.10656600271965" lon="20.082006618285032"><ele>119.33333333333333</ele><time>2026-04-29T07:59:06Z</time></trkpt><trkpt lat="41.1066613698482" lon="20.082018492108038"><ele>119.66666666666666</ele><time>2026-04-29T07:59:07Z</time></trkpt><trkpt lat="41.10675212863506" lon="20.082022010508847"><ele>120.0</ele><time>2026-04-29T07:59:08Z</time></trkpt><trkpt lat="41.10683552219078" lon="20.082025217187333"><ele>120.33333333333334</ele><time>2026-04-29T07:59:09Z</time></trkpt><trkpt lat="41.106913744655074" lon="20.082032937780014"><ele>120.66666666666667</ele><time>2026-04-29T07:59:10Z</time></trkpt><trkpt lat="41.1069966583671" lon="20.082043055739547"><ele>121.0</ele><time>2026-04-29T07:59:11Z</time></trkpt><trkpt lat="41.107084352755805" lon="20.082051499814018"><ele>121.00000000000001</ele><time>2026-04-29T07:59:12Z</time></trkpt><trkpt lat="41.10717512325937" lon="20.08205748744613"><ele>121.0</ele><time>2026-04-29T07:59:12.999Z</time></trkpt><trkpt lat="41.10726828762801" lon="20.08206532459568"><ele>121.0</ele><time>2026-04-29T07:59:13.999Z</time></trkpt><trkpt lat="41.107353001755534" lon="20.082070195171"><ele>121.0</ele><time>2026-04-29T07:59:14.999Z</time></trkpt><trkpt lat="41.10742598466053" lon="20.08207621131182"><ele>121.00000000000001</ele><time>2026-04-29T07:59:15.999Z</time></trkpt><trkpt lat="41.10749354899264" lon="20.082079228947634"><ele>121.0</ele><time>2026-04-29T07:59:16.999Z</time></trkpt><trkpt lat="41.10756157089329" lon="20.082084406236326"><ele>121.00000000000001</ele><time>2026-04-29T07:59:17.999Z</time></trkpt><trkpt lat="41.107627375408875" lon="20.08209104981577"><ele>121.0</ele><time>2026-04-29T07:59:18.999Z</time></trkpt><trkpt lat="41.10769357007363" lon="20.08209885955314"><ele>121.0</ele><time>2026-04-29T07:59:19.999Z</time></trkpt><trkpt lat="41.107759679544195" lon="20.08210997565527"><ele>121.0</ele><time>2026-04-29T07:59:20.999Z</time></trkpt><trkpt lat="41.10783695710874" lon="20.082124898087244"><ele>121.00000000000001</ele><time>2026-04-29T07:59:21.999Z</time></trkpt><trkpt lat="41.107904213713454" lon="20.08214692878745"><ele>121.0</ele><time>2026-04-29T07:59:22.999Z</time></trkpt><trkpt lat="41.10803360784765" lon="20.082177122428263"><ele>121.0</ele><time>2026-04-29T07:59:24.999Z</time></trkpt><trkpt lat="41.10810773246153" lon="20.082189086699856"><ele>121.0</ele><time>2026-04-29T07:59:25.999Z</time></trkpt><trkpt lat="41.10823302313505" lon="20.082196809699152"><ele>121.0</ele><time>2026-04-29T07:59:27.999Z</time></trkpt><trkpt lat="41.10834114449675" lon="20.082203300651685"><ele>121.0</ele><time>2026-04-29T07:59:29.999Z</time></trkpt><trkpt lat="41.10845875047677" lon="20.082210178871254"><ele>121.0</ele><time>2026-04-29T07:59:31.999Z</time></trkpt><trkpt lat="41.10856543708595" lon="20.082209558966976"><ele>121.33333333333334</ele><time>2026-04-29T07:59:33.999Z</time></trkpt><trkpt lat="41.108672793280256" lon="20.082202748285695"><ele>121.66666666666667</ele><time>2026-04-29T07:59:35.999Z</time></trkpt><trkpt lat="41.108752364956906" lon="20.082197681189964"><ele>122.0</ele><time>2026-04-29T07:59:37.999Z</time></trkpt><trkpt lat="41.10883345701267" lon="20.082195296046997"><ele>122.33333333333334</ele><time>2026-04-29T07:59:39.999Z</time></trkpt><trkpt lat="41.10892535723771" lon="20.082200256810903"><ele>122.66666666666667</ele><time>2026-04-29T07:59:41.999Z</time></trkpt><trkpt lat="41.10901251103181" lon="20.082207324271092"><ele>123.0</ele><time>2026-04-29T07:59:43.999Z</time></trkpt><trkpt lat="41.10908548117678" lon="20.082214133031684"><ele>123.5</ele><time>2026-04-29T07:59:45.999Z</time></trkpt><trkpt lat="41.109157234097374" lon="20.08221959236941"><ele>124.0</ele><time>2026-04-29T07:59:47.999Z</time></trkpt><trkpt lat="41.10923830985788" lon="20.082222190816452"><ele>124.5</ele><time>2026-04-29T07:59:49.999Z</time></trkpt><trkpt lat="41.109322905640234" lon="20.082229892838882"><ele>125.0</ele><time>2026-04-29T07:59:51.999Z</time></trkpt><trkpt lat="41.10940891282224" lon="20.08223656062459"><ele>125.5</ele><time>2026-04-29T07:59:53.999Z</time></trkpt><trkpt lat="41.10949584700635" lon="20.0822378234285"><ele>126.0</ele><time>2026-04-29T07:59:55.999Z</time></trkpt><trkpt lat="41.10959971247867" lon="20.082245449241956"><ele>126.0</ele><time>2026-04-29T07:59:57.999Z</time></trkpt><trkpt lat="41.109728545143625" lon="20.082267189750084"><ele>126.0</ele><time>2026-04-29T07:59:59.999Z</time></trkpt><trkpt lat="41.10981544504815" lon="20.08228172513219"><ele>126.0</ele><time>2026-04-29T08:00:00.999Z</time></trkpt><trkpt lat="41.10989590310135" lon="20.08229114387802"><ele>126.0</ele><time>2026-04-29T08:00:01.999Z</time></trkpt><trkpt lat="41.10996489783643" lon="20.082295485142282"><ele>126.0</ele><time>2026-04-29T08:00:02.999Z</time></trkpt><trkpt lat="41.11008202274089" lon="20.082303239649306"><ele>126.16666666666667</ele><time>2026-04-29T08:00:04.999Z</time></trkpt><trkpt lat="41.110153524271986" lon="20.08230831800158"><ele>126.33333333333334</ele><time>2026-04-29T08:00:06.999Z</time></trkpt><trkpt lat="41.110216364587615" lon="20.08231341039546"><ele>126.5</ele><time>2026-04-29T08:00:08.999Z</time></trkpt><trkpt lat="41.11030895967308" lon="20.082331250970928"><ele>126.66666666666667</ele><time>2026-04-29T08:00:10.999Z</time></trkpt><trkpt lat="41.11042242146562" lon="20.082347787943185"><ele>126.83333333333334</ele><time>2026-04-29T08:00:12.999Z</time></trkpt><trkpt lat="41.1105170434248" lon="20.08236234458602"><ele>127.0</ele><time>2026-04-29T08:00:14.999Z</time></trkpt><trkpt lat="41.1105922282414" lon="20.08236431423291"><ele>127.00000000000001</ele><time>2026-04-29T08:00:16.999Z</time></trkpt><trkpt lat="41.11067236603403" lon="20.08237493880127"><ele>127.0</ele><time>2026-04-29T08:00:18.999Z</time></trkpt><trkpt lat="41.11075374180892" lon="20.082368755127852"><ele>127.0</ele><time>2026-04-29T08:00:20.999Z</time></trkpt><trkpt lat="41.11083628269038" lon="20.082380434048464"><ele>127.0</ele><time>2026-04-29T08:00:23.999Z</time></trkpt><trkpt lat="41.110902453481984" lon="20.082386392978318"><ele>127.00000000000001</ele><time>2026-04-29T08:00:26.999Z</time></trkpt><trkpt lat="41.1109785781191" lon="20.082357896631514"><ele>127.0</ele><time>2026-04-29T08:00:30.999Z</time></trkpt><trkpt lat="41.111057685066186" lon="20.08233630911878"><ele>127.33333333333334</ele><time>2026-04-29T08:00:34.999Z</time></trkpt><trkpt lat="41.111132812102554" lon="20.082345847777923"><ele>127.66666666666667</ele><time>2026-04-29T08:00:37.999Z</time></trkpt><trkpt lat="41.11121040206464" lon="20.08235133975018"><ele>128.0</ele><time>2026-04-29T08:00:40.999Z</time></trkpt><trkpt lat="41.111289190907655" lon="20.08235539238204"><ele>128.33333333333334</ele><time>2026-04-29T08:00:42.999Z</time></trkpt><trkpt lat="41.11135257073271" lon="20.082390307989673"><ele>128.66666666666666</ele><time>2026-04-29T08:00:43.999Z</time></trkpt><trkpt lat="41.11147049863984" lon="20.08236075883796"><ele>129.0</ele><time>2026-04-29T08:00:45.999Z</time></trkpt><trkpt lat="41.111507877328265" lon="20.082277914693126"><ele>129.0</ele><time>2026-04-29T08:00:46.999Z</time></trkpt><trkpt lat="41.111503070395194" lon="20.082179473807592"><ele>129.0</ele><time>2026-04-29T08:00:47.999Z</time></trkpt><trkpt lat="41.111445192838616" lon="20.082103668702704"><ele>129.0</ele><time>2026-04-29T08:00:48.999Z</time></trkpt><trkpt lat="41.11141027563884" lon="20.082025402252377"><ele>129.0</ele><time>2026-04-29T08:00:49.999Z</time></trkpt><trkpt lat="41.11137289754117" lon="20.081937412397867"><ele>129.0</ele><time>2026-04-29T08:00:50.999Z</time></trkpt><trkpt lat="41.111341104390696" lon="20.08183609915322"><ele>129.0</ele><time>2026-04-29T08:00:51.999Z</time></trkpt><trkpt lat="41.111316423359995" lon="20.081732031540266"><ele>129.0</ele><time>2026-04-29T08:00:52.999Z</time></trkpt><trkpt lat="41.111295861960976" lon="20.081628357295852"><ele>129.0</ele><time>2026-04-29T08:00:53.999Z</time></trkpt><trkpt lat="41.11126944914355" lon="20.081549468340803"><ele>129.0</ele><time>2026-04-29T08:00:54.999Z</time></trkpt><trkpt lat="41.11122276997974" lon="20.081397576013067"><ele>129.0</ele><time>2026-04-29T08:00:56.999Z</time></trkpt><trkpt lat="41.11117912755207" lon="20.08125556478343"><ele>129.0</ele><time>2026-04-29T08:00:58.999Z</time></trkpt><trkpt lat="41.11114214936808" lon="20.08113175330546"><ele>129.0</ele><time>2026-04-29T08:01:00.999Z</time></trkpt><trkpt lat="41.111108708261064" lon="20.081033177774298"><ele>129.0</ele><time>2026-04-29T08:01:02.999Z</time></trkpt><trkpt lat="41.111077606660736" lon="20.080873649976613"><ele>129.0</ele><time>2026-04-29T08:01:04.999Z</time></trkpt><trkpt lat="41.11103988211976" lon="20.080744399548895"><ele>129.0</ele><time>2026-04-29T08:01:05.999Z</time></trkpt><trkpt lat="41.110989916712704" lon="20.080568115995167"><ele>129.0</ele><time>2026-04-29T08:01:06.999Z</time></trkpt><trkpt lat="41.1109394178858" lon="20.080415509297996"><ele>129.0</ele><time>2026-04-29T08:01:07.999Z</time></trkpt><trkpt lat="41.11089802839667" lon="20.080279785435607"><ele>129.0</ele><time>2026-04-29T08:01:08.999Z</time></trkpt><trkpt lat="41.11085839763456" lon="20.08015866932741"><ele>129.0</ele><time>2026-04-29T08:01:09.999Z</time></trkpt><trkpt lat="41.11082279610466" lon="20.080055183536707"><ele>129.0</ele><time>2026-04-29T08:01:10.999Z</time></trkpt><trkpt lat="41.11079690986031" lon="20.079973530315588"><ele>129.16666666666666</ele><time>2026-04-29T08:01:11.999Z</time></trkpt><trkpt lat="41.11077419594718" lon="20.079885573557736"><ele>129.33333333333334</ele><time>2026-04-29T08:01:13.999Z</time></trkpt><trkpt lat="41.110748492939976" lon="20.079793042924926"><ele>129.5</ele><time>2026-04-29T08:01:16.999Z</time></trkpt><trkpt lat="41.11072458819349" lon="20.079678874860328"><ele>129.66666666666669</ele><time>2026-04-29T08:01:18.999Z</time></trkpt><trkpt lat="41.110769048373854" lon="20.07959220829867"><ele>129.83333333333334</ele><time>2026-04-29T08:01:21.999Z</time></trkpt><trkpt lat="41.11078003444147" lon="20.079495090232875"><ele>130.0</ele><time>2026-04-29T08:01:24.999Z</time></trkpt><trkpt lat="41.110915291814315" lon="20.07952558963675"><ele>130.0</ele><time>2026-04-29T08:01:28.999Z</time></trkpt><trkpt lat="41.11099053304049" lon="20.079542249461422"><ele>130.0</ele><time>2026-04-29T08:01:30.999Z</time></trkpt><trkpt lat="41.11107650837349" lon="20.07958023516964"><ele>130.0</ele><time>2026-04-29T08:01:32.999Z</time></trkpt><trkpt lat="41.11117486938355" lon="20.079612965742072"><ele>130.0</ele><time>2026-04-29T08:01:34.999Z</time></trkpt><trkpt lat="41.11123768359107" lon="20.079629581236176"><ele>130.0</ele><time>2026-04-29T08:01:35.999Z</time></trkpt><trkpt lat="41.111310746384646" lon="20.079651285987275"><ele>130.0</ele><time>2026-04-29T08:01:36.999Z</time></trkpt><trkpt lat="41.11138823950148" lon="20.07967592516886"><ele>130.0</ele><time>2026-04-29T08:01:37.999Z</time></trkpt><trkpt lat="41.11147032318137" lon="20.07969775451269"><ele>130.0</ele><time>2026-04-29T08:01:38.999Z</time></trkpt><trkpt lat="41.11154418548285" lon="20.079719973090704"><ele>130.0</ele><time>2026-04-29T08:01:39.999Z</time></trkpt><trkpt lat="41.11160873154419" lon="20.079739232300568"><ele>130.0</ele><time>2026-04-29T08:01:40.999Z</time></trkpt><trkpt lat="41.11167047273647" lon="20.079766177956028"><ele>130.0</ele><time>2026-04-29T08:01:41.999Z</time></trkpt><trkpt lat="41.111776781786574" lon="20.079830608926066"><ele>130.0</ele><time>2026-04-29T08:01:43.999Z</time></trkpt><trkpt lat="41.11186936168834" lon="20.079827480563434"><ele>129.83333333333334</ele><time>2026-04-29T08:01:45.999Z</time></trkpt><trkpt lat="41.11195200014042" lon="20.079852182540563"><ele>129.66666666666669</ele><time>2026-04-29T08:01:47.999Z</time></trkpt><trkpt lat="41.11204738282905" lon="20.079901850095695"><ele>129.5</ele><time>2026-04-29T08:01:50.999Z</time></trkpt><trkpt lat="41.112105432459444" lon="20.079934855424444"><ele>129.33333333333334</ele><time>2026-04-29T08:01:52.999Z</time></trkpt><trkpt lat="41.11217399654982" lon="20.07996809690645"><ele>129.16666666666666</ele><time>2026-04-29T08:01:54.999Z</time></trkpt><trkpt lat="41.112250568973074" lon="20.079983034872928"><ele>129.0</ele><time>2026-04-29T08:01:57.999Z</time></trkpt><trkpt lat="41.11230078984095" lon="20.079890671120573"><ele>129.5</ele><time>2026-04-29T08:01:58.999Z</time></trkpt><trkpt lat="41.11227505048032" lon="20.079744548171604"><ele>130.0</ele><time>2026-04-29T08:02:00.999Z</time></trkpt><trkpt lat="41.11221844164452" lon="20.07968372372828"><ele>130.5</ele><time>2026-04-29T08:02:01.999Z</time></trkpt><trkpt lat="41.11220040367039" lon="20.079595260922286"><ele>131.0</ele><time>2026-04-29T08:02:02.999Z</time></trkpt><trkpt lat="41.11218847357992" lon="20.079508674529404"><ele>131.5</ele><time>2026-04-29T08:02:03.999Z</time></trkpt><trkpt lat="41.112170099392046" lon="20.079357702867437"><ele>132.0</ele><time>2026-04-29T08:02:05.999Z</time></trkpt><trkpt lat="41.11214636179592" lon="20.079199030925587"><ele>132.0</ele><time>2026-04-29T08:02:07.999Z</time></trkpt><trkpt lat="41.1121244899158" lon="20.079072808609833"><ele>132.0</ele><time>2026-04-29T08:02:09.999Z</time></trkpt><trkpt lat="41.112107439848174" lon="20.078964405178134"><ele>132.0</ele><time>2026-04-29T08:02:11.999Z</time></trkpt><trkpt lat="41.11209046525007" lon="20.07888041671577"><ele>132.0</ele><time>2026-04-29T08:02:13.999Z</time></trkpt><trkpt lat="41.112070253195014" lon="20.078789333138708"><ele>132.0</ele><time>2026-04-29T08:02:15.999Z</time></trkpt><trkpt lat="41.11205751668521" lon="20.078654952616223"><ele>132.0</ele><time>2026-04-29T08:02:17.999Z</time></trkpt><trkpt lat="41.11204234670477" lon="20.07851300219444"><ele>132.0</ele><time>2026-04-29T08:02:19.999Z</time></trkpt><trkpt lat="41.11203726702092" lon="20.078366312687297"><ele>132.0</ele><time>2026-04-29T08:02:21.999Z</time></trkpt><trkpt lat="41.11201675244752" lon="20.07825101131957"><ele>132.0</ele><time>2026-04-29T08:02:23.999Z</time></trkpt><trkpt lat="41.112024008724276" lon="20.078132259623665"><ele>132.0</ele><time>2026-04-29T08:02:25.999Z</time></trkpt><trkpt lat="41.112002823839056" lon="20.078006067745207"><ele>132.0</ele><time>2026-04-29T08:02:27.998Z</time></trkpt><trkpt lat="41.111994934051815" lon="20.07791975668776"><ele>132.0</ele><time>2026-04-29T08:02:30.998Z</time></trkpt><trkpt lat="41.1119878376147" lon="20.07780762846778"><ele>132.0</ele><time>2026-04-29T08:02:33.998Z</time></trkpt><trkpt lat="41.1119876314786" lon="20.077694850781544"><ele>132.0</ele><time>2026-04-29T08:02:35.999Z</time></trkpt><trkpt lat="41.11200389985138" lon="20.07757067738232"><ele>132.0</ele><time>2026-04-29T08:02:37.999Z</time></trkpt><trkpt lat="41.11198180084183" lon="20.077431878190318"><ele>132.0</ele><time>2026-04-29T08:02:39.999Z</time></trkpt><trkpt lat="41.11199347203836" lon="20.077281613138837"><ele>132.2</ele><time>2026-04-29T08:02:41.999Z</time></trkpt><trkpt lat="41.11201287283605" lon="20.077142536200704"><ele>132.39999999999998</ele><time>2026-04-29T08:02:43.999Z</time></trkpt><trkpt lat="41.11203011865306" lon="20.076982945104625"><ele>132.60000000000002</ele><time>2026-04-29T08:02:45.999Z</time></trkpt><trkpt lat="41.112039046462534" lon="20.07686488111505"><ele>132.8</ele><time>2026-04-29T08:02:47.999Z</time></trkpt><trkpt lat="41.11205723336647" lon="20.07674830525934"><ele>133.0</ele><time>2026-04-29T08:02:49.999Z</time></trkpt><trkpt lat="41.11206960264352" lon="20.076622147632225"><ele>133.0</ele><time>2026-04-29T08:02:51.999Z</time></trkpt><trkpt lat="41.112080361656155" lon="20.076493358440192"><ele>133.0</ele><time>2026-04-29T08:02:53.999Z</time></trkpt><trkpt lat="41.11209699704165" lon="20.07636143939569"><ele>133.0</ele><time>2026-04-29T08:02:55.999Z</time></trkpt><trkpt lat="41.11211230803728" lon="20.07624159981127"><ele>133.0</ele><time>2026-04-29T08:02:57.999Z</time></trkpt><trkpt lat="41.11214871580647" lon="20.07611463673167"><ele>133.0</ele><time>2026-04-29T08:02:59.999Z</time></trkpt><trkpt lat="41.11217204019724" lon="20.07598366384198"><ele>133.0</ele><time>2026-04-29T08:03:01.999Z</time></trkpt><trkpt lat="41.112198304800565" lon="20.075848016741254"><ele>133.0</ele><time>2026-04-29T08:03:03.999Z</time></trkpt><trkpt lat="41.112219830386415" lon="20.07574415250643"><ele>133.0</ele><time>2026-04-29T08:03:05.999Z</time></trkpt><trkpt lat="41.112242178317544" lon="20.075636280762673"><ele>133.0</ele><time>2026-04-29T08:03:07.999Z</time></trkpt><trkpt lat="41.11226750433673" lon="20.075514034013256"><ele>133.0</ele><time>2026-04-29T08:03:09.999Z</time></trkpt><trkpt lat="41.11228438570573" lon="20.07538378472996"><ele>133.0</ele><time>2026-04-29T08:03:11.999Z</time></trkpt><trkpt lat="41.11231817239034" lon="20.075271488584875"><ele>133.0</ele><time>2026-04-29T08:03:13.999Z</time></trkpt><trkpt lat="41.11234661347697" lon="20.075158899828224"><ele>133.0</ele><time>2026-04-29T08:03:15.999Z</time></trkpt><trkpt lat="41.112372684273325" lon="20.07505523076388"><ele>133.0</ele><time>2026-04-29T08:03:17.999Z</time></trkpt><trkpt lat="41.112400358047296" lon="20.074946614483316"><ele>133.0</ele><time>2026-04-29T08:03:19.999Z</time></trkpt><trkpt lat="41.11243076092087" lon="20.07484586742803"><ele>133.0</ele><time>2026-04-29T08:03:21.999Z</time></trkpt><trkpt lat="41.11245767529991" lon="20.0747352375404"><ele>133.66666666666669</ele><time>2026-04-29T08:03:23.999Z</time></trkpt><trkpt lat="41.11247888897364" lon="20.074633360131884"><ele>134.33333333333334</ele><time>2026-04-29T08:03:25.999Z</time></trkpt><trkpt lat="41.11250173774077" lon="20.07454722588628"><ele>135.0</ele><time>2026-04-29T08:03:27.999Z</time></trkpt><trkpt lat="41.11254055001564" lon="20.074446200298215"><ele>135.66666666666666</ele><time>2026-04-29T08:03:30.999Z</time></trkpt><trkpt lat="41.11258138406999" lon="20.07437071717595"><ele>136.33333333333331</ele><time>2026-04-29T08:03:33.999Z</time></trkpt><trkpt lat="41.11263502699091" lon="20.07430198516952"><ele>137.0</ele><time>2026-04-29T08:03:35.999Z</time></trkpt><trkpt lat="41.112725734631404" lon="20.074219775181486"><ele>136.6</ele><time>2026-04-29T08:03:37.999Z</time></trkpt><trkpt lat="41.11278195118845" lon="20.074087934891715"><ele>136.2</ele><time>2026-04-29T08:03:39.999Z</time></trkpt><trkpt lat="41.112745603592856" lon="20.073982018568575"><ele>135.8</ele><time>2026-04-29T08:03:40.999Z</time></trkpt><trkpt lat="41.112750152715854" lon="20.07381297507384"><ele>135.4</ele><time>2026-04-29T08:03:42.999Z</time></trkpt><trkpt lat="41.11275537280785" lon="20.073727811193834"><ele>135.0</ele><time>2026-04-29T08:03:43.999Z</time></trkpt><trkpt lat="41.11277792087283" lon="20.073573235594775"><ele>135.0</ele><time>2026-04-29T08:03:45.999Z</time></trkpt><trkpt lat="41.11281827776726" lon="20.073422930454793"><ele>135.0</ele><time>2026-04-29T08:03:47.999Z</time></trkpt><trkpt lat="41.11290451284125" lon="20.073320291225432"><ele>135.0</ele><time>2026-04-29T08:03:49.999Z</time></trkpt><trkpt lat="41.112975005154304" lon="20.07320772401477"><ele>135.0</ele><time>2026-04-29T08:03:51.999Z</time></trkpt><trkpt lat="41.113043689993354" lon="20.073097761236596"><ele>134.6</ele><time>2026-04-29T08:03:53.999Z</time></trkpt><trkpt lat="41.113118524167994" lon="20.07297786601872"><ele>134.2</ele><time>2026-04-29T08:03:55.999Z</time></trkpt><trkpt lat="41.113182596731676" lon="20.072875212463344"><ele>133.8</ele><time>2026-04-29T08:03:57.999Z</time></trkpt><trkpt lat="41.113241546822245" lon="20.07278076586263"><ele>133.4</ele><time>2026-04-29T08:03:59.999Z</time></trkpt><trkpt lat="41.113287054962306" lon="20.07266434058169"><ele>133.0</ele><time>2026-04-29T08:04:01.999Z</time></trkpt><trkpt lat="41.113299606959295" lon="20.072517669624595"><ele>133.75</ele><time>2026-04-29T08:04:03.999Z</time></trkpt><trkpt lat="41.11332525280031" lon="20.072374446917475"><ele>134.5</ele><time>2026-04-29T08:04:05.999Z</time></trkpt><trkpt lat="41.11335209322913" lon="20.072234962650278"><ele>135.25</ele><time>2026-04-29T08:04:07.998Z</time></trkpt><trkpt lat="41.11337535439849" lon="20.072081385641535"><ele>136.0</ele><time>2026-04-29T08:04:09.998Z</time></trkpt><trkpt lat="41.11340120383309" lon="20.071925315718953"><ele>135.99999999999997</ele><time>2026-04-29T08:04:11.998Z</time></trkpt><trkpt lat="41.11342159120844" lon="20.07184381753115"><ele>136.0</ele><time>2026-04-29T08:04:12.998Z</time></trkpt><trkpt lat="41.11344235818941" lon="20.07176412291216"><ele>136.0</ele><time>2026-04-29T08:04:13.998Z</time></trkpt><trkpt lat="41.113465588408125" lon="20.07167928063968"><ele>136.0</ele><time>2026-04-29T08:04:14.998Z</time></trkpt><trkpt lat="41.11348817668095" lon="20.071592921880338"><ele>136.0</ele><time>2026-04-29T08:04:15.999Z</time></trkpt><trkpt lat="41.11350965166706" lon="20.071506343127496"><ele>135.99999999999997</ele><time>2026-04-29T08:04:16.998Z</time></trkpt><trkpt lat="41.11353508397299" lon="20.07140685231459"><ele>136.0</ele><time>2026-04-29T08:04:17.998Z</time></trkpt><trkpt lat="41.113558766098805" lon="20.071313710860842"><ele>135.33333333333334</ele><time>2026-04-29T08:04:18.998Z</time></trkpt><trkpt lat="41.11358195493435" lon="20.07121866813221"><ele>134.66666666666669</ele><time>2026-04-29T08:04:19.998Z</time></trkpt><trkpt lat="41.11360695495932" lon="20.071120964281178"><ele>134.0</ele><time>2026-04-29T08:04:20.998Z</time></trkpt><trkpt lat="41.11363272028185" lon="20.07101822718257"><ele>133.33333333333334</ele><time>2026-04-29T08:04:21.998Z</time></trkpt><trkpt lat="41.113660381348794" lon="20.070911427987458"><ele>132.66666666666666</ele><time>2026-04-29T08:04:22.998Z</time></trkpt><trkpt lat="41.11368801063926" lon="20.07079980056266"><ele>132.0</ele><time>2026-04-29T08:04:23.998Z</time></trkpt><trkpt lat="41.11372516882854" lon="20.070684821401663"><ele>131.66666666666666</ele><time>2026-04-29T08:04:24.998Z</time></trkpt><trkpt lat="41.11376347399362" lon="20.070568107047382"><ele>131.33333333333334</ele><time>2026-04-29T08:04:25.998Z</time></trkpt><trkpt lat="41.113804351559075" lon="20.0704567199901"><ele>131.0</ele><time>2026-04-29T08:04:26.998Z</time></trkpt><trkpt lat="41.11383589287692" lon="20.07035291777484"><ele>130.66666666666669</ele><time>2026-04-29T08:04:27.998Z</time></trkpt><trkpt lat="41.11386458409578" lon="20.070249461655802"><ele>130.33333333333334</ele><time>2026-04-29T08:04:28.998Z</time></trkpt><trkpt lat="41.113898829070365" lon="20.070147549034598"><ele>130.0</ele><time>2026-04-29T08:04:29.998Z</time></trkpt><trkpt lat="41.11393232649054" lon="20.070046643559667"><ele>130.0</ele><time>2026-04-29T08:04:30.998Z</time></trkpt><trkpt lat="41.11395760891648" lon="20.069953270049982"><ele>130.0</ele><time>2026-04-29T08:04:31.998Z</time></trkpt><trkpt lat="41.113979889653535" lon="20.06985999572235"><ele>130.0</ele><time>2026-04-29T08:04:32.998Z</time></trkpt><trkpt lat="41.113994522488" lon="20.069757711400463"><ele>130.0</ele><time>2026-04-29T08:04:33.998Z</time></trkpt><trkpt lat="41.1140092022757" lon="20.069649112287706"><ele>130.0</ele><time>2026-04-29T08:04:34.998Z</time></trkpt><trkpt lat="41.114017076813234" lon="20.06953594876567"><ele>130.0</ele><time>2026-04-29T08:04:35.998Z</time></trkpt><trkpt lat="41.11401309545748" lon="20.0694255257173"><ele>129.25</ele><time>2026-04-29T08:04:36.998Z</time></trkpt><trkpt lat="41.113998788400835" lon="20.069293960441925"><ele>128.5</ele><time>2026-04-29T08:04:37.998Z</time></trkpt><trkpt lat="41.114000070762046" lon="20.0691384463636"><ele>127.75</ele><time>2026-04-29T08:04:38.998Z</time></trkpt><trkpt lat="41.11396209792872" lon="20.068982308384836"><ele>127.0</ele><time>2026-04-29T08:04:39.998Z</time></trkpt><trkpt lat="41.11393893909748" lon="20.0688262848724"><ele>127.0</ele><time>2026-04-29T08:04:40.998Z</time></trkpt><trkpt lat="41.11390867447441" lon="20.068666763733106"><ele>126.99999999999999</ele><time>2026-04-29T08:04:41.998Z</time></trkpt><trkpt lat="41.11388155853402" lon="20.06851791145758"><ele>126.99999999999999</ele><time>2026-04-29T08:04:42.998Z</time></trkpt><trkpt lat="41.11385630138144" lon="20.068381896014877"><ele>127.0</ele><time>2026-04-29T08:04:43.998Z</time></trkpt><trkpt lat="41.1138372410708" lon="20.06826305323168"><ele>127.0</ele><time>2026-04-29T08:04:44.998Z</time></trkpt><trkpt lat="41.113829499290674" lon="20.068145109108354"><ele>127.0</ele><time>2026-04-29T08:04:45.998Z</time></trkpt><trkpt lat="41.11383209151397" lon="20.06801150072316"><ele>127.0</ele><time>2026-04-29T08:04:46.998Z</time></trkpt><trkpt lat="41.113853908237225" lon="20.067874373021773"><ele>127.0</ele><time>2026-04-29T08:04:47.998Z</time></trkpt><trkpt lat="41.11390585751957" lon="20.067736625122997"><ele>127.0</ele><time>2026-04-29T08:04:48.998Z</time></trkpt><trkpt lat="41.11398450882769" lon="20.06758771849272"><ele>127.0</ele><time>2026-04-29T08:04:49.998Z</time></trkpt><trkpt lat="41.114067424888255" lon="20.06743642039618"><ele>127.0</ele><time>2026-04-29T08:04:50.998Z</time></trkpt><trkpt lat="41.114138364219635" lon="20.067311507152983"><ele>127.0</ele><time>2026-04-29T08:04:51.998Z</time></trkpt><trkpt lat="41.11419941277554" lon="20.067196238105968"><ele>127.0</ele><time>2026-04-29T08:04:52.998Z</time></trkpt><trkpt lat="41.11426145428381" lon="20.06707045478088"><ele>127.5</ele><time>2026-04-29T08:04:53.998Z</time></trkpt><trkpt lat="41.114351544791226" lon="20.066941194570227"><ele>128.0</ele><time>2026-04-29T08:04:54.999Z</time></trkpt><trkpt lat="41.114366720364835" lon="20.066742866759554"><ele>128.5</ele><time>2026-04-29T08:04:55.999Z</time></trkpt><trkpt lat="41.11439160389843" lon="20.066602088802988"><ele>129.0</ele><time>2026-04-29T08:04:56.999Z</time></trkpt><trkpt lat="41.11441155196111" lon="20.066470767069156"><ele>129.25</ele><time>2026-04-29T08:04:57.999Z</time></trkpt><trkpt lat="41.114421510023554" lon="20.066318511428758"><ele>129.5</ele><time>2026-04-29T08:04:58.999Z</time></trkpt><trkpt lat="41.11442281577093" lon="20.06615543651617"><ele>129.75</ele><time>2026-04-29T08:04:59.999Z</time></trkpt><trkpt lat="41.11442511195842" lon="20.065986670956562"><ele>130.0</ele><time>2026-04-29T08:05:00.999Z</time></trkpt><trkpt lat="41.11443059398798" lon="20.06581106591117"><ele>129.25</ele><time>2026-04-29T08:05:01.999Z</time></trkpt><trkpt lat="41.11442690361695" lon="20.065628485808414"><ele>128.5</ele><time>2026-04-29T08:05:02.999Z</time></trkpt><trkpt lat="41.11443177592396" lon="20.065453344782128"><ele>127.75</ele><time>2026-04-29T08:05:03.999Z</time></trkpt><trkpt lat="41.114428195343976" lon="20.065297442305788"><ele>127.0</ele><time>2026-04-29T08:05:04.999Z</time></trkpt><trkpt lat="41.11436031101005" lon="20.065155231330632"><ele>127.0</ele><time>2026-04-29T08:05:05.999Z</time></trkpt><trkpt lat="41.11433066084777" lon="20.065005874810616"><ele>127.0</ele><time>2026-04-29T08:05:06.999Z</time></trkpt><trkpt lat="41.11429124222522" lon="20.06484404091934"><ele>127.0</ele><time>2026-04-29T08:05:07.999Z</time></trkpt><trkpt lat="41.114244019463165" lon="20.064679011438344"><ele>127.0</ele><time>2026-04-29T08:05:08.999Z</time></trkpt><trkpt lat="41.11419307664231" lon="20.064513557080826"><ele>126.0</ele><time>2026-04-29T08:05:09.999Z</time></trkpt><trkpt lat="41.114143413088925" lon="20.064352143403763"><ele>125.0</ele><time>2026-04-29T08:05:10.999Z</time></trkpt><trkpt lat="41.11409972050359" lon="20.064206243194874"><ele>124.0</ele><time>2026-04-29T08:05:11.999Z</time></trkpt><trkpt lat="41.114058491933314" lon="20.06406876156256"><ele>123.0</ele><time>2026-04-29T08:05:12.999Z</time></trkpt><trkpt lat="41.11401117055729" lon="20.06392536906372"><ele>122.5</ele><time>2026-04-29T08:05:13.999Z</time></trkpt><trkpt lat="41.113965086843706" lon="20.063779036773223"><ele>122.0</ele><time>2026-04-29T08:05:14.999Z</time></trkpt><trkpt lat="41.11392112470748" lon="20.063630580595365"><ele>121.5</ele><time>2026-04-29T08:05:15.999Z</time></trkpt><trkpt lat="41.11387528369366" lon="20.063477247042446"><ele>121.0</ele><time>2026-04-29T08:05:16.999Z</time></trkpt><trkpt lat="41.11382789164638" lon="20.063323411655105"><ele>120.5</ele><time>2026-04-29T08:05:17.999Z</time></trkpt><trkpt lat="41.11377974162214" lon="20.0631698068819"><ele>120.0</ele><time>2026-04-29T08:05:18.999Z</time></trkpt><trkpt lat="41.11373030967368" lon="20.063015020541883"><ele>119.5</ele><time>2026-04-29T08:05:19.999Z</time></trkpt><trkpt lat="41.1136817093874" lon="20.062857747739717"><ele>119.0</ele><time>2026-04-29T08:05:20.999Z</time></trkpt><trkpt lat="41.11363170355819" lon="20.06270219643607"><ele>119.0</ele><time>2026-04-29T08:05:21.999Z</time></trkpt><trkpt lat="41.113582509350685" lon="20.0625440670118"><ele>119.0</ele><time>2026-04-29T08:05:22.999Z</time></trkpt><trkpt lat="41.113533799627376" lon="20.062389600747267"><ele>119.0</ele><time>2026-04-29T08:05:23.999Z</time></trkpt><trkpt lat="41.11348373754589" lon="20.062254389485926"><ele>119.0</ele><time>2026-04-29T08:05:24.999Z</time></trkpt><trkpt lat="41.11344053661545" lon="20.062133138659604"><ele>119.6</ele><time>2026-04-29T08:05:25.999Z</time></trkpt><trkpt lat="41.11340059720206" lon="20.062015166483512"><ele>120.2</ele><time>2026-04-29T08:05:26.999Z</time></trkpt><trkpt lat="41.11336435804465" lon="20.061896245449603"><ele>120.79999999999998</ele><time>2026-04-29T08:05:27.999Z</time></trkpt><trkpt lat="41.1133201703787" lon="20.061768285757594"><ele>121.39999999999999</ele><time>2026-04-29T08:05:28.999Z</time></trkpt><trkpt lat="41.113286687670545" lon="20.061638912661554"><ele>122.0</ele><time>2026-04-29T08:05:29.999Z</time></trkpt><trkpt lat="41.113186611518444" lon="20.061570574391155"><ele>122.0</ele><time>2026-04-29T08:05:30.999Z</time></trkpt><trkpt lat="41.113131191092286" lon="20.061451399584676"><ele>121.99999999999999</ele><time>2026-04-29T08:05:31.999Z</time></trkpt><trkpt lat="41.11306469165124" lon="20.061337952036943"><ele>121.99999999999999</ele><time>2026-04-29T08:05:32.999Z</time></trkpt><trkpt lat="41.11299222274229" lon="20.061226553938837"><ele>122.0</ele><time>2026-04-29T08:05:33.999Z</time></trkpt><trkpt lat="41.11293069918514" lon="20.061086126859557"><ele>122.0</ele><time>2026-04-29T08:05:34.999Z</time></trkpt><trkpt lat="41.11284350894091" lon="20.0609704130361"><ele>122.0</ele><time>2026-04-29T08:05:35.999Z</time></trkpt><trkpt lat="41.11275996693746" lon="20.060845386229992"><ele>122.0</ele><time>2026-04-29T08:05:36.999Z</time></trkpt><trkpt lat="41.112677972188536" lon="20.0607044581886"><ele>122.0</ele><time>2026-04-29T08:05:37.999Z</time></trkpt><trkpt lat="41.112590431001294" lon="20.060563022331063"><ele>122.0</ele><time>2026-04-29T08:05:38.999Z</time></trkpt><trkpt lat="41.11250338545603" lon="20.060426764156123"><ele>121.5</ele><time>2026-04-29T08:05:39.999Z</time></trkpt><trkpt lat="41.11242213134513" lon="20.060305726715455"><ele>121.0</ele><time>2026-04-29T08:05:40.999Z</time></trkpt><trkpt lat="41.112347605432504" lon="20.060190991702626"><ele>120.5</ele><time>2026-04-29T08:05:41.999Z</time></trkpt><trkpt lat="41.112275332003264" lon="20.060082345124304"><ele>120.0</ele><time>2026-04-29T08:05:42.999Z</time></trkpt><trkpt lat="41.1121895214097" lon="20.059967132487017"><ele>120.5</ele><time>2026-04-29T08:05:43.999Z</time></trkpt><trkpt lat="41.11209724513447" lon="20.059854044700973"><ele>121.0</ele><time>2026-04-29T08:05:44.999Z</time></trkpt><trkpt lat="41.11199950168194" lon="20.059741256799036"><ele>121.5</ele><time>2026-04-29T08:05:45.999Z</time></trkpt><trkpt lat="41.11190933658745" lon="20.059620677528333"><ele>122.0</ele><time>2026-04-29T08:05:46.999Z</time></trkpt><trkpt lat="41.111834620131894" lon="20.05950898477242"><ele>122.0</ele><time>2026-04-29T08:05:47.999Z</time></trkpt><trkpt lat="41.11180120580467" lon="20.059379455778128"><ele>121.99999999999999</ele><time>2026-04-29T08:05:48.999Z</time></trkpt><trkpt lat="41.11176450716015" lon="20.05924989812975"><ele>121.99999999999999</ele><time>2026-04-29T08:05:49.999Z</time></trkpt><trkpt lat="41.11172381240135" lon="20.05910093343752"><ele>122.0</ele><time>2026-04-29T08:05:50.999Z</time></trkpt><trkpt lat="41.11170071773491" lon="20.05894590482376"><ele>122.0</ele><time>2026-04-29T08:05:51.999Z</time></trkpt><trkpt lat="41.11166006799176" lon="20.058770635755785"><ele>121.75</ele><time>2026-04-29T08:05:52.999Z</time></trkpt><trkpt lat="41.11163794357818" lon="20.058597772040567"><ele>121.5</ele><time>2026-04-29T08:05:53.999Z</time></trkpt><trkpt lat="41.11161883865741" lon="20.058417279193062"><ele>121.25</ele><time>2026-04-29T08:05:54.999Z</time></trkpt><trkpt lat="41.11162147414822" lon="20.05825236770425"><ele>121.0</ele><time>2026-04-29T08:05:55.999Z</time></trkpt><trkpt lat="41.11160929011045" lon="20.058103722437597"><ele>120.50000000000001</ele><time>2026-04-29T08:05:56.999Z</time></trkpt><trkpt lat="41.11159895668421" lon="20.057977654644155"><ele>120.0</ele><time>2026-04-29T08:05:57.999Z</time></trkpt><trkpt lat="41.11157855080831" lon="20.05788762993543"><ele>119.5</ele><time>2026-04-29T08:05:58.999Z</time></trkpt><trkpt lat="41.11157150899996" lon="20.05779926956402"><ele>119.0</ele><time>2026-04-29T08:05:59.999Z</time></trkpt><trkpt lat="41.11157620946095" lon="20.057697861896365"><ele>118.50000000000001</ele><time>2026-04-29T08:06:00.999Z</time></trkpt><trkpt lat="41.111566450308906" lon="20.05757773475119"><ele>118.0</ele><time>2026-04-29T08:06:01.999Z</time></trkpt><trkpt lat="41.111555689188876" lon="20.057445291732908"><ele>117.66666666666667</ele><time>2026-04-29T08:06:02.999Z</time></trkpt><trkpt lat="41.111547604770905" lon="20.0573388104628"><ele>117.33333333333334</ele><time>2026-04-29T08:06:03.999Z</time></trkpt><trkpt lat="41.11154044820033" lon="20.05725528233743"><ele>117.0</ele><time>2026-04-29T08:06:04.999Z</time></trkpt><trkpt lat="41.111518721986" lon="20.057171004167074"><ele>116.66666666666666</ele><time>2026-04-29T08:06:05.999Z</time></trkpt><trkpt lat="41.111511874140184" lon="20.057076412845255"><ele>116.33333333333333</ele><time>2026-04-29T08:06:06.999Z</time></trkpt><trkpt lat="41.11149543148379" lon="20.056918814831597"><ele>116.0</ele><time>2026-04-29T08:06:08.999Z</time></trkpt><trkpt lat="41.11148157409936" lon="20.056767378127944"><ele>115.99999999999999</ele><time>2026-04-29T08:06:10.999Z</time></trkpt><trkpt lat="41.11147621469462" lon="20.056682846204275"><ele>116.0</ele><time>2026-04-29T08:06:11.999Z</time></trkpt><trkpt lat="41.111466940268855" lon="20.0565831833429"><ele>116.0</ele><time>2026-04-29T08:06:12.999Z</time></trkpt><trkpt lat="41.11145932171347" lon="20.056473212808672"><ele>116.0</ele><time>2026-04-29T08:06:13.999Z</time></trkpt><trkpt lat="41.11145901778597" lon="20.056352003456006"><ele>115.99999999999999</ele><time>2026-04-29T08:06:14.999Z</time></trkpt><trkpt lat="41.11146867700351" lon="20.056228979841904"><ele>116.0</ele><time>2026-04-29T08:06:15.999Z</time></trkpt><trkpt lat="41.11149095276985" lon="20.05610149206284"><ele>116.0</ele><time>2026-04-29T08:06:16.999Z</time></trkpt><trkpt lat="41.11151978615763" lon="20.055964680335777"><ele>116.0</ele><time>2026-04-29T08:06:17.999Z</time></trkpt><trkpt lat="41.11154872934147" lon="20.05582126344341"><ele>116.0</ele><time>2026-04-29T08:06:18.999Z</time></trkpt><trkpt lat="41.11157990275055" lon="20.055672417422727"><ele>116.0</ele><time>2026-04-29T08:06:19.999Z</time></trkpt><trkpt lat="41.11161147513175" lon="20.055519995930027"><ele>116.0</ele><time>2026-04-29T08:06:20.999Z</time></trkpt><trkpt lat="41.11164419927137" lon="20.05536406672319"><ele>116.0</ele><time>2026-04-29T08:06:21.999Z</time></trkpt><trkpt lat="41.11167459081258" lon="20.055201610997383"><ele>116.0</ele><time>2026-04-29T08:06:22.999Z</time></trkpt><trkpt lat="41.111700961265534" lon="20.055035166843336"><ele>116.0</ele><time>2026-04-29T08:06:23.999Z</time></trkpt><trkpt lat="41.111724318460645" lon="20.0548736361205"><ele>116.25</ele><time>2026-04-29T08:06:24.999Z</time></trkpt><trkpt lat="41.11174594206537" lon="20.05471700585717"><ele>116.5</ele><time>2026-04-29T08:06:25.999Z</time></trkpt><trkpt lat="41.11176680258892" lon="20.054565078886174"><ele>116.75</ele><time>2026-04-29T08:06:26.999Z</time></trkpt><trkpt lat="41.111787560139724" lon="20.054418527791704"><ele>117.0</ele><time>2026-04-29T08:06:27.999Z</time></trkpt><trkpt lat="41.111806598784845" lon="20.054267808908797"><ele>117.0</ele><time>2026-04-29T08:06:28.999Z</time></trkpt><trkpt lat="41.11182600380789" lon="20.05412285084677"><ele>116.99999999999999</ele><time>2026-04-29T08:06:29.999Z</time></trkpt><trkpt lat="41.1118454500274" lon="20.05399124866732"><ele>116.99999999999999</ele><time>2026-04-29T08:06:30.999Z</time></trkpt><trkpt lat="41.11186186150876" lon="20.053857693367785"><ele>117.0</ele><time>2026-04-29T08:06:31.999Z</time></trkpt><trkpt lat="41.111870022101094" lon="20.0537486349227"><ele>117.0</ele><time>2026-04-29T08:06:32.999Z</time></trkpt><trkpt lat="41.11186865721482" lon="20.05364777563034"><ele>117.33333333333333</ele><time>2026-04-29T08:06:33.999Z</time></trkpt><trkpt lat="41.11186018949359" lon="20.05354919596817"><ele>117.66666666666666</ele><time>2026-04-29T08:06:34.999Z</time></trkpt><trkpt lat="41.11186412021085" lon="20.053426521215005"><ele>118.0</ele><time>2026-04-29T08:06:35.999Z</time></trkpt><trkpt lat="41.111846635590986" lon="20.05330202033009"><ele>118.33333333333333</ele><time>2026-04-29T08:06:36.999Z</time></trkpt><trkpt lat="41.11182702431944" lon="20.053200428903708"><ele>118.66666666666666</ele><time>2026-04-29T08:06:37.999Z</time></trkpt><trkpt lat="41.11179349739084" lon="20.05311419274251"><ele>119.0</ele><time>2026-04-29T08:06:38.999Z</time></trkpt><trkpt lat="41.11175178201231" lon="20.05300536842397"><ele>119.6</ele><time>2026-04-29T08:06:39.999Z</time></trkpt><trkpt lat="41.111709353275586" lon="20.05290743522881"><ele>120.2</ele><time>2026-04-29T08:06:40.999Z</time></trkpt><trkpt lat="41.11166321815268" lon="20.052803367871622"><ele>120.79999999999998</ele><time>2026-04-29T08:06:42.999Z</time></trkpt><trkpt lat="41.11159728064162" lon="20.052654632122504"><ele>121.39999999999999</ele><time>2026-04-29T08:06:44.999Z</time></trkpt><trkpt lat="41.11155513590676" lon="20.05256759994807"><ele>122.0</ele><time>2026-04-29T08:06:45.998Z</time></trkpt><trkpt lat="41.11151588347614" lon="20.05248382652844"><ele>120.0</ele><time>2026-04-29T08:06:46.998Z</time></trkpt><trkpt lat="41.11146160820424" lon="20.05243495123071"><ele>117.99999999999999</ele><time>2026-04-29T08:06:47.999Z</time></trkpt><trkpt lat="41.11141194128507" lon="20.052313116919834"><ele>115.99999999999999</ele><time>2026-04-29T08:06:49.999Z</time></trkpt><trkpt lat="41.111371846252055" lon="20.052155395390194"><ele>114.0</ele><time>2026-04-29T08:06:51.999Z</time></trkpt><trkpt lat="41.11133754243258" lon="20.052068567598972"><ele>112.0</ele><time>2026-04-29T08:06:52.999Z</time></trkpt><trkpt lat="41.11129994487565" lon="20.051974367120952"><ele>112.00000000000001</ele><time>2026-04-29T08:06:53.999Z</time></trkpt><trkpt lat="41.11126446246928" lon="20.05188546615714"><ele>112.0</ele><time>2026-04-29T08:06:54.999Z</time></trkpt><trkpt lat="41.111247866582346" lon="20.05179969774404"><ele>112.0</ele><time>2026-04-29T08:06:55.999Z</time></trkpt><trkpt lat="41.1112270598487" lon="20.051707123228372"><ele>112.0</ele><time>2026-04-29T08:06:56.999Z</time></trkpt><trkpt lat="41.1112089475131" lon="20.05162653678373"><ele>112.00000000000001</ele><time>2026-04-29T08:06:57.999Z</time></trkpt><trkpt lat="41.11118958802528" lon="20.051540401441287"><ele>112.0</ele><time>2026-04-29T08:06:58.999Z</time></trkpt><trkpt lat="41.111160046127026" lon="20.051404957310567"><ele>112.00000000000001</ele><time>2026-04-29T08:07:00.999Z</time></trkpt><trkpt lat="41.111136397939724" lon="20.051257815302826"><ele>112.0</ele><time>2026-04-29T08:07:02.999Z</time></trkpt><trkpt lat="41.111122261926646" lon="20.051159555759625"><ele>112.0</ele><time>2026-04-29T08:07:03.999Z</time></trkpt><trkpt lat="41.111105644752435" lon="20.05106655919576"><ele>112.0</ele><time>2026-04-29T08:07:04.999Z</time></trkpt><trkpt lat="41.111090787763" lon="20.05098341333317"><ele>112.00000000000001</ele><time>2026-04-29T08:07:05.999Z</time></trkpt><trkpt lat="41.111027141653466" lon="20.050899025886956"><ele>112.0</ele><time>2026-04-29T08:07:06.999Z</time></trkpt><trkpt lat="41.110984313011514" lon="20.050821943761683"><ele>111.83333333333334</ele><time>2026-04-29T08:07:07.999Z</time></trkpt><trkpt lat="41.11090723611886" lon="20.050754273100665"><ele>111.66666666666667</ele><time>2026-04-29T08:07:08.999Z</time></trkpt><trkpt lat="41.11085013109983" lon="20.050694116327957"><ele>111.5</ele><time>2026-04-29T08:07:09.999Z</time></trkpt><trkpt lat="41.11079922531116" lon="20.05063862444378"><ele>111.33333333333334</ele><time>2026-04-29T08:07:10.999Z</time></trkpt><trkpt lat="41.110723162645634" lon="20.050604270207035"><ele>111.16666666666667</ele><time>2026-04-29T08:07:11.999Z</time></trkpt><trkpt lat="41.110623824075915" lon="20.050634379266462"><ele>111.0</ele><time>2026-04-29T08:07:12.999Z</time></trkpt><trkpt lat="41.11053398632606" lon="20.050624068619463"><ele>111.0</ele><time>2026-04-29T08:07:13.999Z</time></trkpt><trkpt lat="41.11044329453577" lon="20.05062275167027"><ele>111.0</ele><time>2026-04-29T08:07:14.999Z</time></trkpt><trkpt lat="41.11036147981997" lon="20.050623709351296"><ele>111.0</ele><time>2026-04-29T08:07:15.999Z</time></trkpt><trkpt lat="41.11029500149867" lon="20.05062533422347"><ele>111.0</ele><time>2026-04-29T08:07:16.999Z</time></trkpt><trkpt lat="41.11021611972845" lon="20.050630629717816"><ele>111.0</ele><time>2026-04-29T08:07:17.999Z</time></trkpt><trkpt lat="41.1101239202569" lon="20.05063452998279"><ele>111.0</ele><time>2026-04-29T08:07:18.999Z</time></trkpt><trkpt lat="41.11002904406157" lon="20.050632678550066"><ele>111.0</ele><time>2026-04-29T08:07:19.999Z</time></trkpt><trkpt lat="41.10993396028906" lon="20.050630461086023"><ele>111.0</ele><time>2026-04-29T08:07:20.999Z</time></trkpt><trkpt lat="41.109830790239094" lon="20.050629558561234"><ele>111.0</ele><time>2026-04-29T08:07:21.999Z</time></trkpt><trkpt lat="41.10971991556266" lon="20.050633569084848"><ele>111.0</ele><time>2026-04-29T08:07:22.999Z</time></trkpt><trkpt lat="41.10960583410264" lon="20.05063178961199"><ele>111.0</ele><time>2026-04-29T08:07:23.999Z</time></trkpt><trkpt lat="41.10948588797098" lon="20.05061796809154"><ele>110.5</ele><time>2026-04-29T08:07:24.999Z</time></trkpt><trkpt lat="41.10937409364279" lon="20.050593715857456"><ele>110.0</ele><time>2026-04-29T08:07:25.999Z</time></trkpt><trkpt lat="41.10926963923957" lon="20.050551259380985"><ele>109.5</ele><time>2026-04-29T08:07:26.999Z</time></trkpt><trkpt lat="41.10915755089945" lon="20.05050277545716"><ele>109.0</ele><time>2026-04-29T08:07:27.999Z</time></trkpt><trkpt lat="41.10903690606585" lon="20.050447634790437"><ele>108.75</ele><time>2026-04-29T08:07:28.999Z</time></trkpt><trkpt lat="41.10891073765736" lon="20.050389456948245"><ele>108.5</ele><time>2026-04-29T08:07:29.999Z</time></trkpt><trkpt lat="41.10877750067783" lon="20.05033110304592"><ele>108.25</ele><time>2026-04-29T08:07:30.999Z</time></trkpt><trkpt lat="41.10864272760931" lon="20.05027383003378"><ele>108.0</ele><time>2026-04-29T08:07:31.999Z</time></trkpt><trkpt lat="41.108518098335274" lon="20.050227733949303"><ele>108.0</ele><time>2026-04-29T08:07:32.999Z</time></trkpt><trkpt lat="41.10841378376237" lon="20.05019015634568"><ele>108.0</ele><time>2026-04-29T08:07:33.999Z</time></trkpt><trkpt lat="41.10832170460573" lon="20.050154217863433"><ele>108.0</ele><time>2026-04-29T08:07:34.999Z</time></trkpt><trkpt lat="41.108243866345546" lon="20.050121823528535"><ele>108.0</ele><time>2026-04-29T08:07:36Z</time></trkpt><trkpt lat="41.10817768630593" lon="20.050092778980634"><ele>108.0</ele><time>2026-04-29T08:07:37Z</time></trkpt><trkpt lat="41.10812609213861" lon="20.05003283830513"><ele>108.0</ele><time>2026-04-29T08:07:38Z</time></trkpt><trkpt lat="41.10805069023569" lon="20.049981004530075"><ele>107.75</ele><time>2026-04-29T08:07:39Z</time></trkpt><trkpt lat="41.10796189552034" lon="20.049919964089643"><ele>107.5</ele><time>2026-04-29T08:07:40Z</time></trkpt><trkpt lat="41.10785049787538" lon="20.04984338564226"><ele>107.25</ele><time>2026-04-29T08:07:41Z</time></trkpt><trkpt lat="41.107754780395005" lon="20.04975422771174"><ele>107.0</ele><time>2026-04-29T08:07:42Z</time></trkpt><trkpt lat="41.107649986290966" lon="20.049654470359496"><ele>107.0</ele><time>2026-04-29T08:07:43Z</time></trkpt><trkpt lat="41.10752478838602" lon="20.049535289881643"><ele>107.0</ele><time>2026-04-29T08:07:44Z</time></trkpt><trkpt lat="41.10736144636249" lon="20.04937453145946"><ele>107.0</ele><time>2026-04-29T08:07:45Z</time></trkpt><trkpt lat="41.10717590400569" lon="20.04918489382724"><ele>107.0</ele><time>2026-04-29T08:07:46Z</time></trkpt><trkpt lat="41.10699605881004" lon="20.049015992664625"><ele>107.0</ele><time>2026-04-29T08:07:47Z</time></trkpt><trkpt lat="41.10684879924848" lon="20.0488616973194"><ele>107.0</ele><time>2026-04-29T08:07:48Z</time></trkpt><trkpt lat="41.10670895074442" lon="20.048715560572543"><ele>107.0</ele><time>2026-04-29T08:07:49Z</time></trkpt><trkpt lat="41.106601693574596" lon="20.048556254953407"><ele>107.0</ele><time>2026-04-29T08:07:50Z</time></trkpt><trkpt lat="41.10648401974104" lon="20.048427632706982"><ele>107.0</ele><time>2026-04-29T08:07:51Z</time></trkpt><trkpt lat="41.10638637660032" lon="20.048288265531973"><ele>106.0</ele><time>2026-04-29T08:07:52Z</time></trkpt><trkpt lat="41.10628181579467" lon="20.048141426372755"><ele>105.0</ele><time>2026-04-29T08:07:53Z</time></trkpt><trkpt lat="41.10617383537617" lon="20.04798303617355"><ele>104.0</ele><time>2026-04-29T08:07:54Z</time></trkpt><trkpt lat="41.106063384811264" lon="20.04782071881133"><ele>104.0</ele><time>2026-04-29T08:07:55Z</time></trkpt><trkpt lat="41.1059636901976" lon="20.047666771089002"><ele>104.0</ele><time>2026-04-29T08:07:56Z</time></trkpt><trkpt lat="41.105885633344975" lon="20.047515795567396"><ele>104.0</ele><time>2026-04-29T08:07:57Z</time></trkpt><trkpt lat="41.105804293118304" lon="20.04739142890075"><ele>104.0</ele><time>2026-04-29T08:07:58Z</time></trkpt><trkpt lat="41.10572465728133" lon="20.04726974901615"><ele>104.25</ele><time>2026-04-29T08:07:59Z</time></trkpt><trkpt lat="41.105640419964764" lon="20.04713925120907"><ele>104.5</ele><time>2026-04-29T08:08:00Z</time></trkpt><trkpt lat="41.10554962546508" lon="20.046998225671537"><ele>104.75</ele><time>2026-04-29T08:08:01Z</time></trkpt><trkpt lat="41.105455281489014" lon="20.046851551211635"><ele>105.0</ele><time>2026-04-29T08:08:02Z</time></trkpt><trkpt lat="41.10535718256202" lon="20.04669827532244"><ele>104.66666666666666</ele><time>2026-04-29T08:08:03Z</time></trkpt><trkpt lat="41.10525498840679" lon="20.04653871052857"><ele>104.33333333333333</ele><time>2026-04-29T08:08:04Z</time></trkpt><trkpt lat="41.10514730929394" lon="20.046370705461527"><ele>104.0</ele><time>2026-04-29T08:08:05Z</time></trkpt><trkpt lat="41.10503900276972" lon="20.0462020298186"><ele>104.0</ele><time>2026-04-29T08:08:06Z</time></trkpt><trkpt lat="41.104939697723715" lon="20.046047680396278"><ele>104.0</ele><time>2026-04-29T08:08:07Z</time></trkpt><trkpt lat="41.104850497328336" lon="20.045908895990962"><ele>104.0</ele><time>2026-04-29T08:08:08Z</time></trkpt><trkpt lat="41.10478786357718" lon="20.045810965205675"><ele>104.0</ele><time>2026-04-29T08:08:09Z</time></trkpt><trkpt lat="41.10474244986621" lon="20.04574126360756"><ele>103.80000000000001</ele><time>2026-04-29T08:08:10Z</time></trkpt><trkpt lat="41.104695328616735" lon="20.045673473294023"><ele>103.60000000000001</ele><time>2026-04-29T08:08:11Z</time></trkpt><trkpt lat="41.104635369309946" lon="20.04558733850988"><ele>103.4</ele><time>2026-04-29T08:08:12Z</time></trkpt><trkpt lat="41.104562156281375" lon="20.045482164023383"><ele>103.2</ele><time>2026-04-29T08:08:13Z</time></trkpt><trkpt lat="41.10448548457683" lon="20.045372215914092"><ele>103.0</ele><time>2026-04-29T08:08:14Z</time></trkpt><trkpt lat="41.10440056227166" lon="20.045250490197535"><ele>103.0</ele><time>2026-04-29T08:08:15Z</time></trkpt><trkpt lat="41.10430818292407" lon="20.04511810660277"><ele>103.0</ele><time>2026-04-29T08:08:16Z</time></trkpt><trkpt lat="41.10421356496121" lon="20.04498160126036"><ele>103.0</ele><time>2026-04-29T08:08:17Z</time></trkpt><trkpt lat="41.104139311070014" lon="20.044855128536174"><ele>103.0</ele><time>2026-04-29T08:08:18Z</time></trkpt><trkpt lat="41.10407635420749" lon="20.044735176398316"><ele>102.60000000000001</ele><time>2026-04-29T08:08:19Z</time></trkpt><trkpt lat="41.10402190555002" lon="20.044620964155992"><ele>102.2</ele><time>2026-04-29T08:08:20Z</time></trkpt><trkpt lat="41.10397359230208" lon="20.04451667057731"><ele>101.8</ele><time>2026-04-29T08:08:21Z</time></trkpt><trkpt lat="41.1039228540031" lon="20.044398491809513"><ele>101.4</ele><time>2026-04-29T08:08:22Z</time></trkpt><trkpt lat="41.10386864842729" lon="20.04425283738855"><ele>101.0</ele><time>2026-04-29T08:08:23Z</time></trkpt><trkpt lat="41.10381120486529" lon="20.044098482208227"><ele>100.75</ele><time>2026-04-29T08:08:24Z</time></trkpt><trkpt lat="41.1037514349868" lon="20.043936615790038"><ele>100.5</ele><time>2026-04-29T08:08:25Z</time></trkpt><trkpt lat="41.10368863005123" lon="20.0437664733921"><ele>100.25</ele><time>2026-04-29T08:08:26Z</time></trkpt><trkpt lat="41.103623940779116" lon="20.043591733495187"><ele>100.0</ele><time>2026-04-29T08:08:27Z</time></trkpt><trkpt lat="41.103555650899274" lon="20.04340831093443"><ele>100.0</ele><time>2026-04-29T08:08:28Z</time></trkpt><trkpt lat="41.10348628083467" lon="20.04322517671944"><ele>100.0</ele><time>2026-04-29T08:08:29Z</time></trkpt><trkpt lat="41.103417492522865" lon="20.04304289916998"><ele>100.0</ele><time>2026-04-29T08:08:30Z</time></trkpt><trkpt lat="41.103357355832564" lon="20.042882132628502"><ele>100.0</ele><time>2026-04-29T08:08:31Z</time></trkpt><trkpt lat="41.10330368087834" lon="20.042740256578906"><ele>100.0</ele><time>2026-04-29T08:08:32Z</time></trkpt><trkpt lat="41.10325458512847" lon="20.042610394987825"><ele>100.0</ele><time>2026-04-29T08:08:33Z</time></trkpt><trkpt lat="41.10321302767132" lon="20.042492484113474"><ele>100.0</ele><time>2026-04-29T08:08:34Z</time></trkpt><trkpt lat="41.103176859050734" lon="20.042383743592374"><ele>100.0</ele><time>2026-04-29T08:08:35Z</time></trkpt><trkpt lat="41.10313731596996" lon="20.04226463924071"><ele>100.0</ele><time>2026-04-29T08:08:36Z</time></trkpt><trkpt lat="41.103091789996924" lon="20.042127514247273"><ele>100.0</ele><time>2026-04-29T08:08:37Z</time></trkpt><trkpt lat="41.10304174599415" lon="20.041978957617705"><ele>100.0</ele><time>2026-04-29T08:08:38Z</time></trkpt><trkpt lat="41.10298965382242" lon="20.04182193022699"><ele>100.0</ele><time>2026-04-29T08:08:39Z</time></trkpt><trkpt lat="41.10293439728939" lon="20.041656020491917"><ele>100.0</ele><time>2026-04-29T08:08:40Z</time></trkpt><trkpt lat="41.102875257776866" lon="20.041478878465313"><ele>100.0</ele><time>2026-04-29T08:08:41Z</time></trkpt><trkpt lat="41.102813691906434" lon="20.041294462499746"><ele>100.0</ele><time>2026-04-29T08:08:42Z</time></trkpt><trkpt lat="41.10275120933396" lon="20.041107300671243"><ele>100.0</ele><time>2026-04-29T08:08:43Z</time></trkpt><trkpt lat="41.10269576057487" lon="20.040941208061668"><ele>100.0</ele><time>2026-04-29T08:08:44Z</time></trkpt><trkpt lat="41.10264313115657" lon="20.0407835606427"><ele>99.66666666666667</ele><time>2026-04-29T08:08:45Z</time></trkpt><trkpt lat="41.10258472954613" lon="20.04060862297814"><ele>99.33333333333334</ele><time>2026-04-29T08:08:46Z</time></trkpt><trkpt lat="41.102524566869505" lon="20.04042285700796"><ele>99.0</ele><time>2026-04-29T08:08:47Z</time></trkpt><trkpt lat="41.10246389731516" lon="20.04023416760341"><ele>98.0</ele><time>2026-04-29T08:08:48Z</time></trkpt><trkpt lat="41.10239844645453" lon="20.040030607813684"><ele>97.0</ele><time>2026-04-29T08:08:49Z</time></trkpt><trkpt lat="41.10233166751448" lon="20.039821577252738"><ele>96.0</ele><time>2026-04-29T08:08:50Z</time></trkpt><trkpt lat="41.10226238477279" lon="20.039603847423468"><ele>96.0</ele><time>2026-04-29T08:08:51Z</time></trkpt><trkpt lat="41.102191570186136" lon="20.039383261468323"><ele>96.0</ele><time>2026-04-29T08:08:52Z</time></trkpt><trkpt lat="41.10212176996592" lon="20.039165835194655"><ele>96.0</ele><time>2026-04-29T08:08:53Z</time></trkpt><trkpt lat="41.10205944717072" lon="20.0389736164354"><ele>96.0</ele><time>2026-04-29T08:08:53.999Z</time></trkpt><trkpt lat="41.10199758930497" lon="20.03878544283699"><ele>96.0</ele><time>2026-04-29T08:08:54.999Z</time></trkpt><trkpt lat="41.10193392397831" lon="20.03859094602894"><ele>96.0</ele><time>2026-04-29T08:08:55.999Z</time></trkpt><trkpt lat="41.10186835363085" lon="20.038389182436724"><ele>97.0</ele><time>2026-04-29T08:08:56.999Z</time></trkpt><trkpt lat="41.1018014541988" lon="20.03818421149388"><ele>98.0</ele><time>2026-04-29T08:08:57.999Z</time></trkpt><trkpt lat="41.10173352446083" lon="20.03797662078489"><ele>99.0</ele><time>2026-04-29T08:08:58.999Z</time></trkpt><trkpt lat="41.10166335931876" lon="20.03776221474135"><ele>99.0</ele><time>2026-04-29T08:08:59.999Z</time></trkpt><trkpt lat="41.10159154247718" lon="20.037543130488967"><ele>99.0</ele><time>2026-04-29T08:09:00.999Z</time></trkpt><trkpt lat="41.101523822867335" lon="20.03733816794947"><ele>99.0</ele><time>2026-04-29T08:09:01.999Z</time></trkpt><trkpt lat="41.101461780899875" lon="20.037149916889504"><ele>98.66666666666666</ele><time>2026-04-29T08:09:02.999Z</time></trkpt><trkpt lat="41.101396797503995" lon="20.03695458171631"><ele>98.33333333333333</ele><time>2026-04-29T08:09:03.999Z</time></trkpt><trkpt lat="41.10133035603025" lon="20.0367545694668"><ele>98.0</ele><time>2026-04-29T08:09:04.999Z</time></trkpt><trkpt lat="41.10126075126499" lon="20.036545034629405"><ele>97.66666666666666</ele><time>2026-04-29T08:09:05.999Z</time></trkpt><trkpt lat="41.101175959942324" lon="20.036343280237134"><ele>97.33333333333334</ele><time>2026-04-29T08:09:06.999Z</time></trkpt><trkpt lat="41.101134892376244" lon="20.036114290829403"><ele>97.0</ele><time>2026-04-29T08:09:07.999Z</time></trkpt><trkpt lat="41.101089909575734" lon="20.035889076328516"><ele>97.0</ele><time>2026-04-29T08:09:08.999Z</time></trkpt><trkpt lat="41.101047605735296" lon="20.035683175815954"><ele>97.0</ele><time>2026-04-29T08:09:09.999Z</time></trkpt><trkpt lat="41.101004277584096" lon="20.035469639065877"><ele>97.0</ele><time>2026-04-29T08:09:10.999Z</time></trkpt><trkpt lat="41.10097498153992" lon="20.03524082650156"><ele>97.0</ele><time>2026-04-29T08:09:11.998Z</time></trkpt><trkpt lat="41.100940309019826" lon="20.035001832174256"><ele>97.0</ele><time>2026-04-29T08:09:12.998Z</time></trkpt><trkpt lat="41.10090353876264" lon="20.034753328705982"><ele>97.0</ele><time>2026-04-29T08:09:13.998Z</time></trkpt><trkpt lat="41.100868204274946" lon="20.03451339104289"><ele>97.33333333333334</ele><time>2026-04-29T08:09:14.998Z</time></trkpt><trkpt lat="41.100837097998124" lon="20.034302164319772"><ele>97.66666666666666</ele><time>2026-04-29T08:09:15.998Z</time></trkpt><trkpt lat="41.100798988235915" lon="20.034088312106334"><ele>98.0</ele><time>2026-04-29T08:09:16.998Z</time></trkpt><trkpt lat="41.10076178304613" lon="20.03387584865606"><ele>97.0</ele><time>2026-04-29T08:09:17.998Z</time></trkpt><trkpt lat="41.100727881231066" lon="20.033682249278964"><ele>96.0</ele><time>2026-04-29T08:09:18.998Z</time></trkpt><trkpt lat="41.10069267951817" lon="20.033481226928085"><ele>95.0</ele><time>2026-04-29T08:09:19.998Z</time></trkpt><trkpt lat="41.100655521740094" lon="20.033269156983362"><ele>95.0</ele><time>2026-04-29T08:09:20.998Z</time></trkpt><trkpt lat="41.10062600569339" lon="20.03306444167"><ele>95.0</ele><time>2026-04-29T08:09:21.998Z</time></trkpt><trkpt lat="41.10060761303355" lon="20.032881069111408"><ele>95.0</ele><time>2026-04-29T08:09:22.998Z</time></trkpt><trkpt lat="41.10059792513238" lon="20.032705971561587"><ele>95.0</ele><time>2026-04-29T08:09:23.998Z</time></trkpt><trkpt lat="41.10059692076329" lon="20.032555017746915"><ele>95.16666666666667</ele><time>2026-04-29T08:09:24.998Z</time></trkpt><trkpt lat="41.100598245832494" lon="20.032418526592064"><ele>95.33333333333334</ele><time>2026-04-29T08:09:25.998Z</time></trkpt><trkpt lat="41.100599217497" lon="20.03230164477152"><ele>95.5</ele><time>2026-04-29T08:09:26.998Z</time></trkpt><trkpt lat="41.100599957642224" lon="20.032212612524415"><ele>95.66666666666667</ele><time>2026-04-29T08:09:27.998Z</time></trkpt><trkpt lat="41.10060087817426" lon="20.032107627722244"><ele>95.83333333333333</ele><time>2026-04-29T08:09:29.998Z</time></trkpt><trkpt lat="41.100601852946546" lon="20.032003668280332"><ele>96.0</ele><time>2026-04-29T08:09:32.998Z</time></trkpt><trkpt lat="41.10060277011936" lon="20.03189872758642"><ele>96.0</ele><time>2026-04-29T08:09:35.998Z</time></trkpt><trkpt lat="41.10060376662039" lon="20.031769780276164"><ele>96.0</ele><time>2026-04-29T08:09:37.998Z</time></trkpt><trkpt lat="41.1006207417336" lon="20.031676474522257"><ele>96.0</ele><time>2026-04-29T08:09:39.998Z</time></trkpt><trkpt lat="41.1007368522386" lon="20.031614804417536"><ele>96.0</ele><time>2026-04-29T08:09:41.998Z</time></trkpt><trkpt lat="41.10081849722655" lon="20.03158504919845"><ele>96.0</ele><time>2026-04-29T08:09:42.998Z</time></trkpt><trkpt lat="41.10092749552865" lon="20.031536381220334"><ele>96.0</ele><time>2026-04-29T08:09:43.998Z</time></trkpt><trkpt lat="41.101062208950346" lon="20.03147931277236"><ele>96.0</ele><time>2026-04-29T08:09:44.998Z</time></trkpt><trkpt lat="41.10118865889452" lon="20.03143699763628"><ele>96.0</ele><time>2026-04-29T08:09:45.998Z</time></trkpt><trkpt lat="41.10129213414429" lon="20.03140241876118"><ele>96.0</ele><time>2026-04-29T08:09:46.998Z</time></trkpt><trkpt lat="41.101369275102236" lon="20.031375851639105"><ele>96.0</ele><time>2026-04-29T08:09:47.998Z</time></trkpt><trkpt lat="41.10143986170769" lon="20.031339153473613"><ele>96.0</ele><time>2026-04-29T08:09:48.998Z</time></trkpt><trkpt lat="41.101499382150806" lon="20.03127877317402"><ele>96.0</ele><time>2026-04-29T08:09:49.998Z</time></trkpt><trkpt lat="41.10156974415447" lon="20.031211209364322"><ele>96.0</ele><time>2026-04-29T08:09:50.998Z</time></trkpt><trkpt lat="41.101637371236365" lon="20.031132926869613"><ele>96.0</ele><time>2026-04-29T08:09:51.998Z</time></trkpt><trkpt lat="41.10170372857161" lon="20.031063383783763"><ele>96.0</ele><time>2026-04-29T08:09:52.998Z</time></trkpt><trkpt lat="41.101762459217305" lon="20.031009977592852"><ele>96.4</ele><time>2026-04-29T08:09:53.998Z</time></trkpt><trkpt lat="41.10185688357461" lon="20.030960074350126"><ele>96.8</ele><time>2026-04-29T08:09:55.998Z</time></trkpt><trkpt lat="41.10192024223516" lon="20.030958906415865"><ele>97.2</ele><time>2026-04-29T08:09:57.998Z</time></trkpt><trkpt lat="41.10204224380352" lon="20.03096860058331"><ele>97.60000000000001</ele><time>2026-04-29T08:09:59.998Z</time></trkpt><trkpt lat="41.102108915920965" lon="20.030993331708036"><ele>98.0</ele><time>2026-04-29T08:10:00.998Z</time></trkpt><trkpt lat="41.10222431298395" lon="20.031000590098568"><ele>97.99999999999999</ele><time>2026-04-29T08:10:02.998Z</time></trkpt><trkpt lat="41.10228877027426" lon="20.030968774986444"><ele>98.0</ele><time>2026-04-29T08:10:03.998Z</time></trkpt><trkpt lat="41.10236054768698" lon="20.03093317594242"><ele>98.0</ele><time>2026-04-29T08:10:04.998Z</time></trkpt><trkpt lat="41.10244534254188" lon="20.03089584779581"><ele>98.0</ele><time>2026-04-29T08:10:05.998Z</time></trkpt><trkpt lat="41.102539509484615" lon="20.030867162317143"><ele>97.99999999999999</ele><time>2026-04-29T08:10:06.998Z</time></trkpt><trkpt lat="41.10263521403211" lon="20.030823096500274"><ele>98.0</ele><time>2026-04-29T08:10:07.998Z</time></trkpt><trkpt lat="41.10273318807055" lon="20.030781000848595"><ele>98.2</ele><time>2026-04-29T08:10:08.998Z</time></trkpt><trkpt lat="41.10282915219245" lon="20.03073471489505"><ele>98.4</ele><time>2026-04-29T08:10:09.998Z</time></trkpt><trkpt lat="41.1029330263052" lon="20.03070202753207"><ele>98.60000000000001</ele><time>2026-04-29T08:10:10.998Z</time></trkpt><trkpt lat="41.10302715718443" lon="20.030665173452366"><ele>98.80000000000001</ele><time>2026-04-29T08:10:11.998Z</time></trkpt><trkpt lat="41.10311067476989" lon="20.0306309796857"><ele>99.0</ele><time>2026-04-29T08:10:12.998Z</time></trkpt><trkpt lat="41.103196860274394" lon="20.03061702897807"><ele>98.4</ele><time>2026-04-29T08:10:13.998Z</time></trkpt><trkpt lat="41.103293420553754" lon="20.030610526960455"><ele>97.80000000000001</ele><time>2026-04-29T08:10:14.998Z</time></trkpt><trkpt lat="41.10339366836856" lon="20.030629254292304"><ele>97.19999999999999</ele><time>2026-04-29T08:10:15.998Z</time></trkpt><trkpt lat="41.10349777607685" lon="20.03064635244984"><ele>96.6</ele><time>2026-04-29T08:10:16.998Z</time></trkpt><trkpt lat="41.103586012572954" lon="20.030690207394848"><ele>96.0</ele><time>2026-04-29T08:10:17.998Z</time></trkpt><trkpt lat="41.10366687375015" lon="20.030739139818927"><ele>96.0</ele><time>2026-04-29T08:10:18.998Z</time></trkpt><trkpt lat="41.10376938318588" lon="20.03069887868697"><ele>96.0</ele><time>2026-04-29T08:10:19.998Z</time></trkpt><trkpt lat="41.10388017978963" lon="20.03072415817229"><ele>96.0</ele><time>2026-04-29T08:10:20.998Z</time></trkpt><trkpt lat="41.10398902404949" lon="20.030757324126384"><ele>96.0</ele><time>2026-04-29T08:10:21.998Z</time></trkpt><trkpt lat="41.104095554386475" lon="20.03078262887397"><ele>96.0</ele><time>2026-04-29T08:10:22.998Z</time></trkpt><trkpt lat="41.104256734932925" lon="20.030812987477553"><ele>96.33333333333334</ele><time>2026-04-29T08:10:23.998Z</time></trkpt><trkpt lat="41.104440010316196" lon="20.030851365626074"><ele>96.66666666666667</ele><time>2026-04-29T08:10:24.998Z</time></trkpt><trkpt lat="41.10456604067132" lon="20.03088882488743"><ele>97.0</ele><time>2026-04-29T08:10:25.998Z</time></trkpt><trkpt lat="41.10470780836753" lon="20.03091514998654"><ele>97.0</ele><time>2026-04-29T08:10:26.998Z</time></trkpt><trkpt lat="41.1048540999192" lon="20.03094087210136"><ele>97.0</ele><time>2026-04-29T08:10:27.998Z</time></trkpt><trkpt lat="41.104976822617886" lon="20.030967471183963"><ele>97.0</ele><time>2026-04-29T08:10:28.998Z</time></trkpt><trkpt lat="41.10507836308326" lon="20.030994747365536"><ele>97.0</ele><time>2026-04-29T08:10:29.998Z</time></trkpt><trkpt lat="41.1051470696504" lon="20.031011936320308"><ele>97.0</ele><time>2026-04-29T08:10:30.998Z</time></trkpt><trkpt lat="41.10524184601372" lon="20.031023934334232"><ele>97.19999999999999</ele><time>2026-04-29T08:10:32.998Z</time></trkpt><trkpt lat="41.10532668160658" lon="20.030916645551244"><ele>97.4</ele><time>2026-04-29T08:10:36.998Z</time></trkpt><trkpt lat="41.10538021385992" lon="20.03076469392672"><ele>97.6</ele><time>2026-04-29T08:10:38.998Z</time></trkpt><trkpt lat="41.10541374607753" lon="20.0306765644133"><ele>97.80000000000001</ele><time>2026-04-29T08:10:39.998Z</time></trkpt><trkpt lat="41.105425142211786" lon="20.030574038825762"><ele>98.0</ele><time>2026-04-29T08:10:40.998Z</time></trkpt><trkpt lat="41.10544157127909" lon="20.030409616504688"><ele>98.0</ele><time>2026-04-29T08:10:42.998Z</time></trkpt><trkpt lat="41.1054469603577" lon="20.030325023877868"><ele>98.0</ele><time>2026-04-29T08:10:43.998Z</time></trkpt><trkpt lat="41.1054669244983" lon="20.03024412382882"><ele>98.0</ele><time>2026-04-29T08:10:45.998Z</time></trkpt><trkpt lat="41.105511287549234" lon="20.030165228303016"><ele>98.0</ele><time>2026-04-29T08:10:48.998Z</time></trkpt><trkpt lat="41.105544802864486" lon="20.030083243690804"><ele>98.0</ele><time>2026-04-29T08:10:51.998Z</time></trkpt><trkpt lat="41.10557755848626" lon="20.030001586213043"><ele>98.0</ele><time>2026-04-29T08:10:53.998Z</time></trkpt><trkpt lat="41.10562182222599" lon="20.0298900000343"><ele>98.0</ele><time>2026-04-29T08:10:56.998Z</time></trkpt><trkpt lat="41.105686923010055" lon="20.029788830419363"><ele>98.60000000000001</ele><time>2026-04-29T08:10:58.999Z</time></trkpt><trkpt lat="41.10575236682277" lon="20.029686158539363"><ele>99.2</ele><time>2026-04-29T08:11:00.999Z</time></trkpt><trkpt lat="41.105798619422224" lon="20.02960408744826"><ele>99.8</ele><time>2026-04-29T08:11:02.999Z</time></trkpt><trkpt lat="41.105805458020406" lon="20.029457605388487"><ele>100.4</ele><time>2026-04-29T08:11:04.999Z</time></trkpt><trkpt lat="41.10579667357109" lon="20.029345557005485"><ele>101.0</ele><time>2026-04-29T08:11:06.999Z</time></trkpt><trkpt lat="41.10575979210327" lon="20.029253729270607"><ele>100.8</ele><time>2026-04-29T08:11:07.999Z</time></trkpt><trkpt lat="41.10570581798639" lon="20.029141155548942"><ele>100.6</ele><time>2026-04-29T08:11:09.999Z</time></trkpt><trkpt lat="41.10565274253695" lon="20.029030460729984"><ele>100.4</ele><time>2026-04-29T08:11:11.999Z</time></trkpt><trkpt lat="41.10561564976545" lon="20.028958064980866"><ele>100.2</ele><time>2026-04-29T08:11:12.999Z</time></trkpt><trkpt lat="41.10555993573863" lon="20.02883088688548"><ele>100.0</ele><time>2026-04-29T08:11:15Z</time></trkpt><trkpt lat="41.10552316075266" lon="20.02869204275084"><ele>100.00000000000001</ele><time>2026-04-29T08:11:17Z</time></trkpt><trkpt lat="41.105493404070025" lon="20.02861108542989"><ele>100.0</ele><time>2026-04-29T08:11:20Z</time></trkpt><trkpt lat="41.10543990386017" lon="20.028519458200545"><ele>100.0</ele><time>2026-04-29T08:11:39Z</time></trkpt><trkpt lat="41.10539341756061" lon="20.02844670488225"><ele>100.0</ele><time>2026-04-29T08:11:40Z</time></trkpt><trkpt lat="41.105345896414015" lon="20.028371467184627"><ele>100.00000000000001</ele><time>2026-04-29T08:11:41Z</time></trkpt><trkpt lat="41.105277144683825" lon="20.02827960831503"><ele>100.0</ele><time>2026-04-29T08:11:43Z</time></trkpt><trkpt lat="41.10522623489297" lon="20.028140663704693"><ele>100.16666666666667</ele><time>2026-04-29T08:11:45Z</time></trkpt><trkpt lat="41.1051692965035" lon="20.028030100923868"><ele>100.33333333333334</ele><time>2026-04-29T08:11:47Z</time></trkpt><trkpt lat="41.10508577879536" lon="20.027959283200985"><ele>100.5</ele><time>2026-04-29T08:11:49Z</time></trkpt><trkpt lat="41.105047653857206" lon="20.027860804260868"><ele>100.66666666666666</ele><time>2026-04-29T08:11:51Z</time></trkpt><trkpt lat="41.10504756902521" lon="20.027773873420646"><ele>100.83333333333333</ele><time>2026-04-29T08:11:53Z</time></trkpt><trkpt lat="41.10502582653651" lon="20.027666265625378"><ele>101.0</ele><time>2026-04-29T08:11:55Z</time></trkpt><trkpt lat="41.10501036993769" lon="20.027584304507698"><ele>100.99999999999999</ele><time>2026-04-29T08:11:57Z</time></trkpt><trkpt lat="41.10499319681853" lon="20.02749223832778"><ele>101.0</ele><time>2026-04-29T08:12:01Z</time></trkpt><trkpt lat="41.10501459878424" lon="20.027611777063584"><ele>101.0</ele><time>2026-04-29T08:12:31Z</time></trkpt><trkpt lat="41.10500430971312" lon="20.027719120888303"><ele>101.0</ele><time>2026-04-29T08:12:32Z</time></trkpt><trkpt lat="41.105016910081076" lon="20.02781841796508"><ele>100.99999999999999</ele><time>2026-04-29T08:12:33Z</time></trkpt><trkpt lat="41.105048081139586" lon="20.027919186710946"><ele>101.0</ele><time>2026-04-29T08:12:35Z</time></trkpt><trkpt lat="41.105095684037785" lon="20.027995125282313"><ele>100.99999999999999</ele><time>2026-04-29T08:12:37Z</time></trkpt><trkpt lat="41.105137587856746" lon="20.02806913787474"><ele>101.0</ele><time>2026-04-29T08:12:39Z</time></trkpt><trkpt lat="41.105198246671016" lon="20.02809420882577"><ele>101.0</ele><time>2026-04-29T08:12:41Z</time></trkpt><trkpt lat="41.105279395635804" lon="20.028123838313746"><ele>101.0</ele><time>2026-04-29T08:12:43Z</time></trkpt><trkpt lat="41.105348334073355" lon="20.02814480443301"><ele>100.99999999999999</ele><time>2026-04-29T08:12:52Z</time></trkpt><trkpt lat="41.105464308024466" lon="20.028210490299564"><ele>101.0</ele><time>2026-04-29T08:12:54Z</time></trkpt><trkpt lat="41.10553221661893" lon="20.028260222025764"><ele>100.83333333333333</ele><time>2026-04-29T08:12:55Z</time></trkpt><trkpt lat="41.10560045351294" lon="20.028313313692088"><ele>100.66666666666666</ele><time>2026-04-29T08:12:56Z</time></trkpt><trkpt lat="41.105670927487076" lon="20.02836266216403"><ele>100.5</ele><time>2026-04-29T08:12:57Z</time></trkpt><trkpt lat="41.10574330040038" lon="20.02840478616715"><ele>100.33333333333334</ele><time>2026-04-29T08:12:58Z</time></trkpt><trkpt lat="41.10583850838173" lon="20.028448330849884"><ele>100.16666666666667</ele><time>2026-04-29T08:12:59Z</time></trkpt><trkpt lat="41.10592220195638" lon="20.028476982900298"><ele>100.0</ele><time>2026-04-29T08:13:00Z</time></trkpt><trkpt lat="41.105998216612896" lon="20.02851068424429"><ele>100.0</ele><time>2026-04-29T08:13:01Z</time></trkpt><trkpt lat="41.10608010217257" lon="20.02855173704778"><ele>100.0</ele><time>2026-04-29T08:13:02Z</time></trkpt><trkpt lat="41.10618132958465" lon="20.028602382758237"><ele>100.0</ele><time>2026-04-29T08:13:03Z</time></trkpt><trkpt lat="41.106280292935864" lon="20.028651237582064"><ele>100.0</ele><time>2026-04-29T08:13:04Z</time></trkpt><trkpt lat="41.106362472582425" lon="20.028691504150455"><ele>100.0</ele><time>2026-04-29T08:13:05Z</time></trkpt><trkpt lat="41.10644619728963" lon="20.02873593153648"><ele>100.00000000000001</ele><time>2026-04-29T08:13:06Z</time></trkpt><trkpt lat="41.10652132262855" lon="20.028771492095167"><ele>100.0</ele><time>2026-04-29T08:13:07Z</time></trkpt><trkpt lat="41.10658770869194" lon="20.028807986470976"><ele>100.0</ele><time>2026-04-29T08:13:08Z</time></trkpt><trkpt lat="41.106666860766104" lon="20.0288480567342"><ele>100.0</ele><time>2026-04-29T08:13:09Z</time></trkpt><trkpt lat="41.10674167513759" lon="20.02888604695659"><ele>100.00000000000001</ele><time>2026-04-29T08:13:10Z</time></trkpt><trkpt lat="41.10680719593023" lon="20.02891604899097"><ele>100.0</ele><time>2026-04-29T08:13:11Z</time></trkpt><trkpt lat="41.10687936066618" lon="20.028946864692582"><ele>99.6</ele><time>2026-04-29T08:13:12Z</time></trkpt><trkpt lat="41.10695059335566" lon="20.028966579368223"><ele>99.2</ele><time>2026-04-29T08:13:13Z</time></trkpt><trkpt lat="41.107050059355124" lon="20.028961220062392"><ele>98.80000000000001</ele><time>2026-04-29T08:13:15Z</time></trkpt><trkpt lat="41.10718413088098" lon="20.02893620598947"><ele>98.4</ele><time>2026-04-29T08:13:17Z</time></trkpt><trkpt lat="41.10727271910876" lon="20.028911925075988"><ele>98.0</ele><time>2026-04-29T08:13:18Z</time></trkpt><trkpt lat="41.10736581073215" lon="20.02888420506491"><ele>98.66666666666666</ele><time>2026-04-29T08:13:19Z</time></trkpt><trkpt lat="41.10746213558898" lon="20.028849226589294"><ele>99.33333333333333</ele><time>2026-04-29T08:13:20Z</time></trkpt><trkpt lat="41.10756450595289" lon="20.02882032823872"><ele>100.0</ele><time>2026-04-29T08:13:21Z</time></trkpt><trkpt lat="41.10765087118265" lon="20.02879703974823"><ele>100.66666666666666</ele><time>2026-04-29T08:13:22Z</time></trkpt><trkpt lat="41.107730180449245" lon="20.028776554559172"><ele>101.33333333333333</ele><time>2026-04-29T08:13:23Z</time></trkpt><trkpt lat="41.107801245104" lon="20.02875231326783"><ele>102.0</ele><time>2026-04-29T08:13:24Z</time></trkpt><trkpt lat="41.10787559895676" lon="20.028727595516266"><ele>102.0</ele><time>2026-04-29T08:13:25Z</time></trkpt><trkpt lat="41.10795140489555" lon="20.028698336266125"><ele>102.0</ele><time>2026-04-29T08:13:26Z</time></trkpt><trkpt lat="41.108018578258864" lon="20.028680469688428"><ele>102.0</ele><time>2026-04-29T08:13:27Z</time></trkpt><trkpt lat="41.1080863575796" lon="20.028670794729205"><ele>102.0</ele><time>2026-04-29T08:13:28Z</time></trkpt><trkpt lat="41.10820085307579" lon="20.028705047646763"><ele>102.0</ele><time>2026-04-29T08:13:30Z</time></trkpt><trkpt lat="41.10825803899096" lon="20.02875269131581"><ele>102.0</ele><time>2026-04-29T08:13:31Z</time></trkpt><trkpt lat="41.10832482831842" lon="20.028813706293235"><ele>101.8</ele><time>2026-04-29T08:13:32Z</time></trkpt><trkpt lat="41.10842030799483" lon="20.028870779047637"><ele>101.6</ele><time>2026-04-29T08:13:33Z</time></trkpt><trkpt lat="41.108532063942285" lon="20.02892465896045"><ele>101.39999999999999</ele><time>2026-04-29T08:13:34Z</time></trkpt><trkpt lat="41.1086432052912" lon="20.028967416620482"><ele>101.19999999999999</ele><time>2026-04-29T08:13:35Z</time></trkpt><trkpt lat="41.10873413575861" lon="20.02899916880037"><ele>101.0</ele><time>2026-04-29T08:13:36Z</time></trkpt><trkpt lat="41.1088216093315" lon="20.029024997564893"><ele>100.99999999999999</ele><time>2026-04-29T08:13:37Z</time></trkpt><trkpt lat="41.10891054748963" lon="20.029054454673005"><ele>101.0</ele><time>2026-04-29T08:13:38Z</time></trkpt><trkpt lat="41.10900035470141" lon="20.02909253378096"><ele>101.0</ele><time>2026-04-29T08:13:39Z</time></trkpt><trkpt lat="41.109079434447644" lon="20.029120620376354"><ele>101.0</ele><time>2026-04-29T08:13:40Z</time></trkpt><trkpt lat="41.10916238919968" lon="20.02914972721303"><ele>100.99999999999999</ele><time>2026-04-29T08:13:41Z</time></trkpt><trkpt lat="41.109255936744866" lon="20.029176127553452"><ele>101.0</ele><time>2026-04-29T08:13:42Z</time></trkpt><trkpt lat="41.10932858781853" lon="20.029186765197913"><ele>101.19999999999999</ele><time>2026-04-29T08:13:43Z</time></trkpt><trkpt lat="41.10943021165485" lon="20.02919053393299"><ele>101.39999999999999</ele><time>2026-04-29T08:13:44Z</time></trkpt><trkpt lat="41.10951441426034" lon="20.029190083068467"><ele>101.6</ele><time>2026-04-29T08:13:45Z</time></trkpt><trkpt lat="41.10959426035333" lon="20.02919179692605"><ele>101.8</ele><time>2026-04-29T08:13:46Z</time></trkpt><trkpt lat="41.10969236529529" lon="20.029201676555353"><ele>102.0</ele><time>2026-04-29T08:13:47Z</time></trkpt><trkpt lat="41.10979588135644" lon="20.02921418431142"><ele>102.39999999999999</ele><time>2026-04-29T08:13:48Z</time></trkpt><trkpt lat="41.10990882912144" lon="20.029231680517952"><ele>102.8</ele><time>2026-04-29T08:13:49Z</time></trkpt><trkpt lat="41.110022095143115" lon="20.029241624936976"><ele>103.2</ele><time>2026-04-29T08:13:50Z</time></trkpt><trkpt lat="41.11011342015865" lon="20.02924009044877"><ele>103.6</ele><time>2026-04-29T08:13:51Z</time></trkpt><trkpt lat="41.11018487853716" lon="20.029227835293664"><ele>104.0</ele><time>2026-04-29T08:13:52Z</time></trkpt><trkpt lat="41.110264682712874" lon="20.029217917401343"><ele>103.99999999999999</ele><time>2026-04-29T08:13:53Z</time></trkpt><trkpt lat="41.110335190418716" lon="20.029199245969295"><ele>104.0</ele><time>2026-04-29T08:13:54Z</time></trkpt><trkpt lat="41.11040723853411" lon="20.029181482951003"><ele>104.0</ele><time>2026-04-29T08:13:55Z</time></trkpt><trkpt lat="41.110490422118986" lon="20.02916778238217"><ele>104.0</ele><time>2026-04-29T08:13:56Z</time></trkpt><trkpt lat="41.110557151705486" lon="20.029145582972827"><ele>103.99999999999999</ele><time>2026-04-29T08:13:57Z</time></trkpt><trkpt lat="41.110661138414265" lon="20.02911469449976"><ele>104.0</ele><time>2026-04-29T08:13:59Z</time></trkpt><trkpt lat="41.11074986425267" lon="20.02907132198494"><ele>103.80000000000001</ele><time>2026-04-29T08:14:01Z</time></trkpt><trkpt lat="41.110842266876695" lon="20.029027671618284"><ele>103.60000000000001</ele><time>2026-04-29T08:14:03Z</time></trkpt><trkpt lat="41.11090629015872" lon="20.02897911587664"><ele>103.4</ele><time>2026-04-29T08:14:05Z</time></trkpt><trkpt lat="41.111046820319714" lon="20.028989548866914"><ele>103.2</ele><time>2026-04-29T08:14:07Z</time></trkpt><trkpt lat="41.11113200462328" lon="20.028966089008662"><ele>103.0</ele><time>2026-04-29T08:14:08Z</time></trkpt><trkpt lat="41.11121547434929" lon="20.028915571408117"><ele>103.00000000000001</ele><time>2026-04-29T08:14:09Z</time></trkpt><trkpt lat="41.11127023502741" lon="20.028863481539148"><ele>103.0</ele><time>2026-04-29T08:14:10Z</time></trkpt><trkpt lat="41.111369988266894" lon="20.028831235118542"><ele>103.0</ele><time>2026-04-29T08:14:12Z</time></trkpt><trkpt lat="41.11143050560647" lon="20.02880072555201"><ele>103.0</ele><time>2026-04-29T08:14:13Z</time></trkpt><trkpt lat="41.11150114738901" lon="20.028764820356788"><ele>103.00000000000001</ele><time>2026-04-29T08:14:14Z</time></trkpt><trkpt lat="41.11161541945828" lon="20.028683663327076"><ele>103.0</ele><time>2026-04-29T08:14:16Z</time></trkpt><trkpt lat="41.111689797904866" lon="20.02865917099876"><ele>103.0</ele><time>2026-04-29T08:14:17Z</time></trkpt><trkpt lat="41.11177337322189" lon="20.028612768769342"><ele>103.0</ele><time>2026-04-29T08:14:18Z</time></trkpt><trkpt lat="41.111863863718746" lon="20.028564999618823"><ele>103.0</ele><time>2026-04-29T08:14:19Z</time></trkpt><trkpt lat="41.1119474966468" lon="20.028527481002012"><ele>103.0</ele><time>2026-04-29T08:14:20Z</time></trkpt><trkpt lat="41.11201831967298" lon="20.0284984596473"><ele>103.0</ele><time>2026-04-29T08:14:21Z</time></trkpt><trkpt lat="41.112117467863726" lon="20.028462144368017"><ele>103.0</ele><time>2026-04-29T08:14:23Z</time></trkpt><trkpt lat="41.11221293362846" lon="20.028432911743916"><ele>103.0</ele><time>2026-04-29T08:14:25Z</time></trkpt><trkpt lat="41.11231487770119" lon="20.028391801902828"><ele>103.0</ele><time>2026-04-29T08:14:27Z</time></trkpt><trkpt lat="41.11241425475425" lon="20.02836538665942"><ele>103.0</ele><time>2026-04-29T08:14:29Z</time></trkpt><trkpt lat="41.11252831187154" lon="20.0283283191"><ele>103.0</ele><time>2026-04-29T08:14:31Z</time></trkpt><trkpt lat="41.112634359004666" lon="20.028300988630512"><ele>103.60000000000001</ele><time>2026-04-29T08:14:33Z</time></trkpt><trkpt lat="41.11276829807372" lon="20.02825186970882"><ele>104.2</ele><time>2026-04-29T08:14:35Z</time></trkpt><trkpt lat="41.11284484751169" lon="20.028223177485664"><ele>104.8</ele><time>2026-04-29T08:14:36Z</time></trkpt><trkpt lat="41.11293747781945" lon="20.028179205582813"><ele>105.4</ele><time>2026-04-29T08:14:37Z</time></trkpt><trkpt lat="41.113014769040085" lon="20.02814118504995"><ele>106.0</ele><time>2026-04-29T08:14:38Z</time></trkpt><trkpt lat="41.113093735432386" lon="20.028099550784546"><ele>106.0</ele><time>2026-04-29T08:14:39Z</time></trkpt><trkpt lat="41.113180900746734" lon="20.028055172783414"><ele>106.0</ele><time>2026-04-29T08:14:40Z</time></trkpt><trkpt lat="41.11325657662449" lon="20.028014026956455"><ele>106.0</ele><time>2026-04-29T08:14:41Z</time></trkpt><trkpt lat="41.11335193271" lon="20.027987830561354"><ele>106.0</ele><time>2026-04-29T08:14:43Z</time></trkpt><trkpt lat="41.113485875073174" lon="20.02798225430747"><ele>106.0</ele><time>2026-04-29T08:14:45Z</time></trkpt><trkpt lat="41.113558067456516" lon="20.027979884995645"><ele>106.19999999999999</ele><time>2026-04-29T08:14:46Z</time></trkpt><trkpt lat="41.11368828991031" lon="20.02797223265161"><ele>106.39999999999999</ele><time>2026-04-29T08:14:48Z</time></trkpt><trkpt lat="41.11377648842473" lon="20.02796994093047"><ele>106.6</ele><time>2026-04-29T08:14:49Z</time></trkpt><trkpt lat="41.113846762064476" lon="20.027975535303025"><ele>106.8</ele><time>2026-04-29T08:14:50Z</time></trkpt><trkpt lat="41.11393093354853" lon="20.027955140282145"><ele>107.0</ele><time>2026-04-29T08:14:52Z</time></trkpt><trkpt lat="41.11402411558692" lon="20.027932677672656"><ele>107.19999999999999</ele><time>2026-04-29T08:14:54Z</time></trkpt><trkpt lat="41.11414433174236" lon="20.027923330764207"><ele>107.39999999999999</ele><time>2026-04-29T08:14:56Z</time></trkpt><trkpt lat="41.11422333653949" lon="20.02790309421776"><ele>107.60000000000001</ele><time>2026-04-29T08:14:57Z</time></trkpt><trkpt lat="41.114300663077266" lon="20.027871380804193"><ele>107.80000000000001</ele><time>2026-04-29T08:14:58Z</time></trkpt><trkpt lat="41.11438009381421" lon="20.027823746953985"><ele>108.0</ele><time>2026-04-29T08:14:59Z</time></trkpt><trkpt lat="41.11446012728075" lon="20.027768369807404"><ele>108.0</ele><time>2026-04-29T08:15:00Z</time></trkpt><trkpt lat="41.11452300326772" lon="20.027711354417818"><ele>108.00000000000001</ele><time>2026-04-29T08:15:01Z</time></trkpt><trkpt lat="41.114628225301516" lon="20.027608306543748"><ele>108.00000000000001</ele><time>2026-04-29T08:15:03Z</time></trkpt><trkpt lat="41.1146953727461" lon="20.027541642278994"><ele>108.0</ele><time>2026-04-29T08:15:04Z</time></trkpt><trkpt lat="41.11474353713655" lon="20.02747516245368"><ele>108.0</ele><time>2026-04-29T08:15:05Z</time></trkpt><trkpt lat="41.11480336046804" lon="20.027385856601757"><ele>108.0</ele><time>2026-04-29T08:15:07Z</time></trkpt><trkpt lat="41.11485173158883" lon="20.027309764150566"><ele>108.0</ele><time>2026-04-29T08:15:10Z</time></trkpt><trkpt lat="41.11493633121415" lon="20.027270638788753"><ele>108.0</ele><time>2026-04-29T08:15:13Z</time></trkpt><trkpt lat="41.11499792770218" lon="20.027299045941735"><ele>108.0</ele><time>2026-04-29T08:15:15Z</time></trkpt><trkpt lat="41.11509250317956" lon="20.02735165688454"><ele>108.0</ele><time>2026-04-29T08:15:17Z</time></trkpt><trkpt lat="41.11519721193699" lon="20.02740622316496"><ele>108.0</ele><time>2026-04-29T08:15:19Z</time></trkpt><trkpt lat="41.11527997724805" lon="20.027437953154042"><ele>108.16666666666667</ele><time>2026-04-29T08:15:22Z</time></trkpt><trkpt lat="41.115378105290496" lon="20.027459129444395"><ele>108.33333333333334</ele><time>2026-04-29T08:15:25Z</time></trkpt><trkpt lat="41.115463293087" lon="20.027476130921865"><ele>108.5</ele><time>2026-04-29T08:15:27Z</time></trkpt><trkpt lat="41.1155582835932" lon="20.027495652344772"><ele>108.66666666666667</ele><time>2026-04-29T08:15:32Z</time></trkpt><trkpt lat="41.115654602336676" lon="20.027499366030966"><ele>108.83333333333334</ele><time>2026-04-29T08:15:34Z</time></trkpt><trkpt lat="41.115718217663726" lon="20.027502458470217"><ele>109.0</ele><time>2026-04-29T08:15:35Z</time></trkpt><trkpt lat="41.11581656765325" lon="20.027489020919504"><ele>109.33333333333334</ele><time>2026-04-29T08:15:37Z</time></trkpt><trkpt lat="41.11591541748964" lon="20.027463050459623"><ele>109.66666666666667</ele><time>2026-04-29T08:15:39Z</time></trkpt><trkpt lat="41.11597942978123" lon="20.02744535687739"><ele>110.0</ele><time>2026-04-29T08:15:40Z</time></trkpt><trkpt lat="41.11604859193377" lon="20.027425844019653"><ele>110.33333333333334</ele><time>2026-04-29T08:15:41Z</time></trkpt><trkpt lat="41.11614798938891" lon="20.02742906627994"><ele>110.66666666666667</ele><time>2026-04-29T08:15:43Z</time></trkpt><trkpt lat="41.1162124084727" lon="20.02743959927772"><ele>111.0</ele><time>2026-04-29T08:15:46Z</time></trkpt><trkpt lat="41.11630111163047" lon="20.02747127763673"><ele>110.8</ele><time>2026-04-29T08:15:49Z</time></trkpt><trkpt lat="41.11639662444755" lon="20.027487718704982"><ele>110.6</ele><time>2026-04-29T08:15:52Z</time></trkpt><trkpt lat="41.1165007558206" lon="20.027510591693456"><ele>110.4</ele><time>2026-04-29T08:15:54Z</time></trkpt><trkpt lat="41.11661488284354" lon="20.02753492755646"><ele>110.2</ele><time>2026-04-29T08:15:56Z</time></trkpt><trkpt lat="41.11668928789304" lon="20.027554072566744"><ele>110.0</ele><time>2026-04-29T08:15:58Z</time></trkpt><trkpt lat="41.116769427942856" lon="20.027604720119285"><ele>110.4</ele><time>2026-04-29T08:16:00Z</time></trkpt><trkpt lat="41.116862328744546" lon="20.02765502742837"><ele>110.8</ele><time>2026-04-29T08:16:03Z</time></trkpt><trkpt lat="41.11694625775065" lon="20.02767602330236"><ele>111.19999999999999</ele><time>2026-04-29T08:16:05Z</time></trkpt><trkpt lat="41.11703737718812" lon="20.027701493587738"><ele>111.6</ele><time>2026-04-29T08:16:07Z</time></trkpt><trkpt lat="41.11714303988383" lon="20.02773105776515"><ele>112.0</ele><time>2026-04-29T08:16:09Z</time></trkpt><trkpt lat="41.117228891161915" lon="20.027751209631187"><ele>112.0</ele><time>2026-04-29T08:16:11Z</time></trkpt><trkpt lat="41.11729867426824" lon="20.027750320999782"><ele>112.0</ele><time>2026-04-29T08:16:12Z</time></trkpt><trkpt lat="41.11736867830499" lon="20.027769479637325"><ele>112.0</ele><time>2026-04-29T08:16:13Z</time></trkpt><trkpt lat="41.11743931447516" lon="20.027793427846635"><ele>112.0</ele><time>2026-04-29T08:16:14Z</time></trkpt><trkpt lat="41.11754578435933" lon="20.027803780006526"><ele>112.0</ele><time>2026-04-29T08:16:16Z</time></trkpt><trkpt lat="41.11760624518528" lon="20.027829733512213"><ele>112.0</ele><time>2026-04-29T08:18:15Z</time></trkpt><trkpt lat="41.11766919487102" lon="20.027841283252062"><ele>112.0</ele><time>2026-04-29T08:18:45Z</time></trkpt><trkpt lat="41.117596836059306" lon="20.027828007166402"><ele>112.0</ele><time>2026-04-29T08:19:32Z</time></trkpt><trkpt lat="41.11753283091851" lon="20.027816263771236"><ele>111.99999999999999</ele><time>2026-04-29T08:19:37Z</time></trkpt><trkpt lat="41.11745918594291" lon="20.027778545471268"><ele>111.99999999999999</ele><time>2026-04-29T08:19:42Z</time></trkpt><trkpt lat="41.11737580624099" lon="20.027770189684823"><ele>112.0</ele><time>2026-04-29T08:19:56Z</time></trkpt><trkpt lat="41.117256576892316" lon="20.027754313960802"><ele>112.0</ele><time>2026-04-29T08:19:58Z</time></trkpt><trkpt lat="41.11714936604379" lon="20.027761564766717"><ele>112.0</ele><time>2026-04-29T08:20:00Z</time></trkpt><trkpt lat="41.11704326969042" lon="20.027768333555446"><ele>111.99999999999999</ele><time>2026-04-29T08:20:02Z</time></trkpt><trkpt lat="41.11693823238413" lon="20.027731899543333"><ele>111.99999999999999</ele><time>2026-04-29T08:20:04Z</time></trkpt><trkpt lat="41.1168353972415" lon="20.027651914143124"><ele>112.0</ele><time>2026-04-29T08:20:06Z</time></trkpt><trkpt lat="41.11673747882792" lon="20.027580159696367"><ele>112.0</ele><time>2026-04-29T08:20:08Z</time></trkpt><trkpt lat="41.116632996156255" lon="20.027543367665128"><ele>111.83333333333334</ele><time>2026-04-29T08:20:10Z</time></trkpt><trkpt lat="41.11652932755992" lon="20.02752141247677"><ele>111.66666666666667</ele><time>2026-04-29T08:20:12Z</time></trkpt><trkpt lat="41.11646320342716" lon="20.027508549904667"><ele>111.5</ele><time>2026-04-29T08:20:14Z</time></trkpt><trkpt lat="41.11638166546368" lon="20.0274962791621"><ele>111.33333333333334</ele><time>2026-04-29T08:20:16Z</time></trkpt><trkpt lat="41.11631820382083" lon="20.02748347274343"><ele>111.16666666666667</ele><time>2026-04-29T08:20:17Z</time></trkpt><trkpt lat="41.11625292205424" lon="20.027470879291055"><ele>111.0</ele><time>2026-04-29T08:20:18Z</time></trkpt><trkpt lat="41.1161854439199" lon="20.027449790297293"><ele>111.0</ele><time>2026-04-29T08:20:19Z</time></trkpt><trkpt lat="41.116123607997906" lon="20.027431347383263"><ele>111.0</ele><time>2026-04-29T08:20:20Z</time></trkpt><trkpt lat="41.11603672720854" lon="20.027418416262776"><ele>111.0</ele><time>2026-04-29T08:20:22Z</time></trkpt><trkpt lat="41.11592539313911" lon="20.027446957150282"><ele>111.0</ele><time>2026-04-29T08:20:24Z</time></trkpt><trkpt lat="41.11585161157173" lon="20.027468333464544"><ele>111.0</ele><time>2026-04-29T08:20:25Z</time></trkpt><trkpt lat="41.115751936309586" lon="20.027487627366146"><ele>111.0</ele><time>2026-04-29T08:20:27Z</time></trkpt><trkpt lat="41.115662953200015" lon="20.02746929908581"><ele>110.8</ele><time>2026-04-29T08:20:29Z</time></trkpt><trkpt lat="41.11555240580374" lon="20.02746290247088"><ele>110.6</ele><time>2026-04-29T08:20:31Z</time></trkpt><trkpt lat="41.115446024764005" lon="20.027441229609966"><ele>110.4</ele><time>2026-04-29T08:20:33Z</time></trkpt><trkpt lat="41.115336335526486" lon="20.027408113961215"><ele>110.2</ele><time>2026-04-29T08:20:35Z</time></trkpt><trkpt lat="41.115257461094465" lon="20.027376983951385"><ele>110.0</ele><time>2026-04-29T08:20:38Z</time></trkpt><trkpt lat="41.11518477467544" lon="20.027349759551445"><ele>110.0</ele><time>2026-04-29T08:20:40Z</time></trkpt><trkpt lat="41.11509997613712" lon="20.027308251558768"><ele>110.0</ele><time>2026-04-29T08:20:42Z</time></trkpt><trkpt lat="41.115022105351265" lon="20.02727046641358"><ele>110.0</ele><time>2026-04-29T08:20:44Z</time></trkpt><trkpt lat="41.11493883075091" lon="20.027217429095078"><ele>110.0</ele><time>2026-04-29T08:20:47Z</time></trkpt><trkpt lat="41.114867398961565" lon="20.02724504647373"><ele>110.0</ele><time>2026-04-29T08:20:48Z</time></trkpt><trkpt lat="41.11488295958502" lon="20.0270470543005"><ele>110.0</ele><time>2026-04-29T08:20:56Z</time></trkpt><trkpt lat="41.11481107819735" lon="20.02687192448299"><ele>110.0</ele><time>2026-04-29T08:20:58Z</time></trkpt><trkpt lat="41.11474720264972" lon="20.026766972817853"><ele>110.0</ele><time>2026-04-29T08:21:00Z</time></trkpt><trkpt lat="41.11469198638385" lon="20.02665728825429"><ele>110.0</ele><time>2026-04-29T08:21:02Z</time></trkpt><trkpt lat="41.114672872380446" lon="20.02657716673338"><ele>110.0</ele><time>2026-04-29T08:21:04Z</time></trkpt><trkpt lat="41.114740692551756" lon="20.026481866474313"><ele>109.99999999999999</ele><time>2026-04-29T08:21:06Z</time></trkpt><trkpt lat="41.114798400657875" lon="20.026443304662653"><ele>110.0</ele><time>2026-04-29T08:21:07Z</time></trkpt><trkpt lat="41.11487325688326" lon="20.026418338499827"><ele>110.0</ele><time>2026-04-29T08:21:08Z</time></trkpt><trkpt lat="41.11494206676074" lon="20.026437692827322"><ele>110.0</ele><time>2026-04-29T08:21:09Z</time></trkpt><trkpt lat="41.11500275724553" lon="20.02641152913984"><ele>109.99999999999999</ele><time>2026-04-29T08:21:11Z</time></trkpt><trkpt lat="41.11510518256292" lon="20.026417684858345"><ele>110.0</ele><time>2026-04-29T08:21:13Z</time></trkpt><trkpt lat="41.115194523619756" lon="20.02638668690205"><ele>109.8</ele><time>2026-04-29T08:21:15Z</time></trkpt><trkpt lat="41.11526408396447" lon="20.02639309438122"><ele>109.6</ele><time>2026-04-29T08:21:17Z</time></trkpt><trkpt lat="41.11533332571184" lon="20.02634428440934"><ele>109.4</ele><time>2026-04-29T08:21:20Z</time></trkpt><trkpt lat="41.11528535350049" lon="20.026115741484986"><ele>109.2</ele><time>2026-04-29T08:21:22Z</time></trkpt><trkpt lat="41.11525733600499" lon="20.02603206145083"><ele>109.0</ele><time>2026-04-29T08:21:23Z</time></trkpt><trkpt lat="41.11522679842097" lon="20.025945348890048"><ele>109.0</ele><time>2026-04-29T08:21:24Z</time></trkpt><trkpt lat="41.11519411556028" lon="20.025853536335436"><ele>109.0</ele><time>2026-04-29T08:21:26Z</time></trkpt><trkpt lat="41.11515081110763" lon="20.025707277477423"><ele>109.0</ele><time>2026-04-29T08:21:28Z</time></trkpt><trkpt lat="41.11511627713215" lon="20.025626195663985"><ele>109.0</ele><time>2026-04-29T08:21:29Z</time></trkpt><trkpt lat="41.11506345501176" lon="20.025512253412664"><ele>109.0</ele><time>2026-04-29T08:21:31Z</time></trkpt><trkpt lat="41.11503565346066" lon="20.025398272900755"><ele>109.5</ele><time>2026-04-29T08:21:33Z</time></trkpt><trkpt lat="41.11502348596389" lon="20.025301571559392"><ele>110.0</ele><time>2026-04-29T08:21:35Z</time></trkpt><trkpt lat="41.11500937705825" lon="20.025211151397603"><ele>110.5</ele><time>2026-04-29T08:21:37Z</time></trkpt><trkpt lat="41.11484261162658" lon="20.025157295850313"><ele>111.0</ele><time>2026-04-29T08:22:04Z</time></trkpt><trkpt lat="41.11470722457495" lon="20.025195196858224"><ele>111.0</ele><time>2026-04-29T08:22:06Z</time></trkpt><trkpt lat="41.11462602741978" lon="20.02521792890753"><ele>111.0</ele><time>2026-04-29T08:22:07Z</time></trkpt><trkpt lat="41.11454541701508" lon="20.025233794010504"><ele>111.0</ele><time>2026-04-29T08:22:08Z</time></trkpt><trkpt lat="41.11447048784495" lon="20.02524868271812"><ele>111.0</ele><time>2026-04-29T08:22:09Z</time></trkpt><trkpt lat="41.11438974377595" lon="20.025272503759744"><ele>111.0</ele><time>2026-04-29T08:22:10Z</time></trkpt><trkpt lat="41.11431892183201" lon="20.02528974596154"><ele>111.0</ele><time>2026-04-29T08:22:11Z</time></trkpt><trkpt lat="41.11425114767518" lon="20.025307923432045"><ele>111.0</ele><time>2026-04-29T08:22:12Z</time></trkpt><trkpt lat="41.11413332122503" lon="20.025342012265767"><ele>111.0</ele><time>2026-04-29T08:22:14Z</time></trkpt><trkpt lat="41.11406733060964" lon="20.025361644286797"><ele>111.0</ele><time>2026-04-29T08:22:15Z</time></trkpt><trkpt lat="41.11397335991191" lon="20.025407951023755"><ele>111.0</ele><time>2026-04-29T08:22:17Z</time></trkpt><trkpt lat="41.11390375925939" lon="20.02541066046442"><ele>111.0</ele><time>2026-04-29T08:22:19Z</time></trkpt><trkpt lat="41.11384049849773" lon="20.02540707378117"><ele>111.0</ele><time>2026-04-29T08:22:24Z</time></trkpt><trkpt lat="41.1138516672275" lon="20.025235943668218"><ele>111.66666666666667</ele><time>2026-04-29T08:22:25Z</time></trkpt><trkpt lat="41.11383245622887" lon="20.02515404468335"><ele>112.33333333333334</ele><time>2026-04-29T08:22:26Z</time></trkpt><trkpt lat="41.113797818719064" lon="20.02501745567474"><ele>113.0</ele><time>2026-04-29T08:22:28Z</time></trkpt><trkpt lat="41.11376425857429" lon="20.024889311008764"><ele>113.66666666666667</ele><time>2026-04-29T08:22:30Z</time></trkpt><trkpt lat="41.113729537993095" lon="20.02481703165461"><ele>114.33333333333334</ele><time>2026-04-29T08:22:31Z</time></trkpt><trkpt lat="41.11365833537156" lon="20.024720209898444"><ele>115.0</ele><time>2026-04-29T08:22:33Z</time></trkpt><trkpt lat="41.113578388010545" lon="20.024644334736628"><ele>116.0</ele><time>2026-04-29T08:22:35Z</time></trkpt><trkpt lat="41.113606814412954" lon="20.024469406939858"><ele>117.0</ele><time>2026-04-29T08:22:55Z</time></trkpt><trkpt lat="41.11358638540407" lon="20.024293884642965"><ele>118.0</ele><time>2026-04-29T08:22:57Z</time></trkpt><trkpt lat="41.11357101840352" lon="20.024191419210194"><ele>119.0</ele><time>2026-04-29T08:22:58Z</time></trkpt><trkpt lat="41.11355433794089" lon="20.024081863591313"><ele>120.0</ele><time>2026-04-29T08:22:59Z</time></trkpt><trkpt lat="41.113542851467194" lon="20.023969345813754"><ele>122.33333333333333</ele><time>2026-04-29T08:23:00Z</time></trkpt><trkpt lat="41.113545023890694" lon="20.023876678599958"><ele>124.66666666666666</ele><time>2026-04-29T08:23:01Z</time></trkpt><trkpt lat="41.11357609526129" lon="20.023765093808933"><ele>127.0</ele><time>2026-04-29T08:23:03Z</time></trkpt><trkpt lat="41.11365118280573" lon="20.023703955322496"><ele>129.33333333333331</ele><time>2026-04-29T08:23:05Z</time></trkpt><trkpt lat="41.11376447471788" lon="20.02366290129541"><ele>131.66666666666666</ele><time>2026-04-29T08:23:07Z</time></trkpt><trkpt lat="41.11378306167855" lon="20.023570182828333"><ele>134.0</ele><time>2026-04-29T08:23:09Z</time></trkpt><trkpt lat="41.11385677555812" lon="20.02353021658044"><ele>134.0</ele><time>2026-04-29T08:23:11Z</time></trkpt><trkpt lat="41.11391521081728" lon="20.023497994209034"><ele>134.0</ele><time>2026-04-29T08:23:12Z</time></trkpt><trkpt lat="41.113974856620096" lon="20.023451765557162"><ele>134.0</ele><time>2026-04-29T08:23:13Z</time></trkpt><trkpt lat="41.1140438233395" lon="20.023423480779492"><ele>134.0</ele><time>2026-04-29T08:23:14Z</time></trkpt><trkpt lat="41.114117078625135" lon="20.023416899610996"><ele>134.0</ele><time>2026-04-29T08:23:15Z</time></trkpt><trkpt lat="41.11420136562978" lon="20.023382744874667"><ele>134.0</ele><time>2026-04-29T08:23:17Z</time></trkpt><trkpt lat="41.114275186034575" lon="20.023341316706965"><ele>134.0</ele><time>2026-04-29T08:23:19Z</time></trkpt><trkpt lat="41.114401059328095" lon="20.02336384552947"><ele>132.6</ele><time>2026-04-29T08:23:21Z</time></trkpt><trkpt lat="41.11447618869834" lon="20.023367526551162"><ele>131.2</ele><time>2026-04-29T08:23:22Z</time></trkpt><trkpt lat="41.11456053483449" lon="20.023343824998907"><ele>129.79999999999998</ele><time>2026-04-29T08:23:23Z</time></trkpt><trkpt lat="41.114653821034615" lon="20.023335375872477"><ele>128.4</ele><time>2026-04-29T08:23:24Z</time></trkpt><trkpt lat="41.1147552426338" lon="20.023325567145836"><ele>127.0</ele><time>2026-04-29T08:23:25Z</time></trkpt><trkpt lat="41.11484984838905" lon="20.02332177446817"><ele>127.19999999999999</ele><time>2026-04-29T08:23:26Z</time></trkpt><trkpt lat="41.1149398831963" lon="20.02331369001257"><ele>127.39999999999999</ele><time>2026-04-29T08:23:27Z</time></trkpt><trkpt lat="41.11503236662669" lon="20.023303460791674"><ele>127.60000000000001</ele><time>2026-04-29T08:23:28Z</time></trkpt><trkpt lat="41.115121690368355" lon="20.02331893640187"><ele>127.80000000000001</ele><time>2026-04-29T08:23:29Z</time></trkpt><trkpt lat="41.11520956508701" lon="20.023320402506755"><ele>128.0</ele><time>2026-04-29T08:23:30Z</time></trkpt><trkpt lat="41.115304105648946" lon="20.02332360124834"><ele>130.83333333333331</ele><time>2026-04-29T08:23:31Z</time></trkpt><trkpt lat="41.11540345085471" lon="20.023289501485422"><ele>133.66666666666666</ele><time>2026-04-29T08:23:32Z</time></trkpt><trkpt lat="41.11549639265095" lon="20.023283839510704"><ele>136.5</ele><time>2026-04-29T08:23:33Z</time></trkpt><trkpt lat="41.115577204560545" lon="20.02326968521806"><ele>139.33333333333334</ele><time>2026-04-29T08:23:34Z</time></trkpt><trkpt lat="41.11564887508437" lon="20.02325630040488"><ele>142.16666666666669</ele><time>2026-04-29T08:23:35Z</time></trkpt><trkpt lat="41.11574281229718" lon="20.023249332533606"><ele>145.0</ele><time>2026-04-29T08:23:37Z</time></trkpt><trkpt lat="41.11586297150861" lon="20.023220754898922"><ele>145.0</ele><time>2026-04-29T08:23:39Z</time></trkpt><trkpt lat="41.11593527549288" lon="20.023190634416835"><ele>145.0</ele><time>2026-04-29T08:23:40Z</time></trkpt><trkpt lat="41.11601566625185" lon="20.023159761121246"><ele>145.0</ele><time>2026-04-29T08:23:41Z</time></trkpt><trkpt lat="41.11610417573439" lon="20.02312565386398"><ele>145.0</ele><time>2026-04-29T08:23:42Z</time></trkpt><trkpt lat="41.11620413421781" lon="20.023082269177642"><ele>145.0</ele><time>2026-04-29T08:23:43Z</time></trkpt><trkpt lat="41.11630705924536" lon="20.023025845937198"><ele>145.0</ele><time>2026-04-29T08:23:44Z</time></trkpt><trkpt lat="41.11640866381623" lon="20.02295384454862"><ele>145.0</ele><time>2026-04-29T08:23:45Z</time></trkpt><trkpt lat="41.11650129186357" lon="20.022869758251673"><ele>145.0</ele><time>2026-04-29T08:23:46Z</time></trkpt><trkpt lat="41.11658766529347" lon="20.022772949748703"><ele>145.0</ele><time>2026-04-29T08:23:47Z</time></trkpt><trkpt lat="41.11667896936729" lon="20.02268696375245"><ele>144.5</ele><time>2026-04-29T08:23:48Z</time></trkpt><trkpt lat="41.11675992485538" lon="20.02258825869944"><ele>144.0</ele><time>2026-04-29T08:23:49Z</time></trkpt><trkpt lat="41.11682926183226" lon="20.02246826827401"><ele>143.5</ele><time>2026-04-29T08:23:50Z</time></trkpt><trkpt lat="41.116922154874196" lon="20.022380089679878"><ele>143.0</ele><time>2026-04-29T08:23:51Z</time></trkpt><trkpt lat="41.117033687407506" lon="20.02233967123769"><ele>143.0</ele><time>2026-04-29T08:23:52Z</time></trkpt><trkpt lat="41.117147118102395" lon="20.02226705473261"><ele>143.0</ele><time>2026-04-29T08:23:53Z</time></trkpt><trkpt lat="41.11726957741608" lon="20.022225890293694"><ele>143.0</ele><time>2026-04-29T08:23:54Z</time></trkpt><trkpt lat="41.11740465465739" lon="20.02219304101634"><ele>143.0</ele><time>2026-04-29T08:23:55Z</time></trkpt><trkpt lat="41.1175453687509" lon="20.0221710328165"><ele>142.5</ele><time>2026-04-29T08:23:56Z</time></trkpt><trkpt lat="41.11767565508452" lon="20.022158958682816"><ele>142.0</ele><time>2026-04-29T08:23:57Z</time></trkpt><trkpt lat="41.117805487680165" lon="20.022145604770078"><ele>141.5</ele><time>2026-04-29T08:23:58Z</time></trkpt><trkpt lat="41.11794590501489" lon="20.022136554308275"><ele>141.0</ele><time>2026-04-29T08:23:59Z</time></trkpt><trkpt lat="41.118072731038964" lon="20.022070200316907"><ele>141.0</ele><time>2026-04-29T08:24:00Z</time></trkpt><trkpt lat="41.11818039262264" lon="20.022013111067103"><ele>141.0</ele><time>2026-04-29T08:24:01Z</time></trkpt><trkpt lat="41.1182752785859" lon="20.021947784116943"><ele>141.0</ele><time>2026-04-29T08:24:02Z</time></trkpt><trkpt lat="41.11837342532517" lon="20.02185523561124"><ele>141.0</ele><time>2026-04-29T08:24:03Z</time></trkpt><trkpt lat="41.11848485070083" lon="20.02175491502827"><ele>140.25</ele><time>2026-04-29T08:24:04Z</time></trkpt><trkpt lat="41.118601627465694" lon="20.02171650007463"><ele>139.5</ele><time>2026-04-29T08:24:05Z</time></trkpt><trkpt lat="41.11871545700983" lon="20.021677825872896"><ele>138.75</ele><time>2026-04-29T08:24:06Z</time></trkpt><trkpt lat="41.11882290945937" lon="20.02160710201426"><ele>138.0</ele><time>2026-04-29T08:24:07Z</time></trkpt><trkpt lat="41.11895416202883" lon="20.021531013778013"><ele>143.66666666666666</ele><time>2026-04-29T08:24:08Z</time></trkpt><trkpt lat="41.119107627569285" lon="20.021433714132026"><ele>149.33333333333331</ele><time>2026-04-29T08:24:09Z</time></trkpt><trkpt lat="41.11928670269221" lon="20.02136850748951"><ele>155.0</ele><time>2026-04-29T08:24:10Z</time></trkpt><trkpt lat="41.119423482136185" lon="20.021278366748916"><ele>155.0</ele><time>2026-04-29T08:24:11Z</time></trkpt><trkpt lat="41.11954435599719" lon="20.02120806813235"><ele>155.0</ele><time>2026-04-29T08:24:12Z</time></trkpt><trkpt lat="41.119653318986906" lon="20.021159630153136"><ele>155.0</ele><time>2026-04-29T08:24:13Z</time></trkpt><trkpt lat="41.119767368488" lon="20.021134760690074"><ele>155.0</ele><time>2026-04-29T08:24:14Z</time></trkpt><trkpt lat="41.11988345303173" lon="20.021119157466323"><ele>154.0</ele><time>2026-04-29T08:24:15Z</time></trkpt><trkpt lat="41.12000645152895" lon="20.021081275492854"><ele>153.0</ele><time>2026-04-29T08:24:16Z</time></trkpt><trkpt lat="41.1201177010615" lon="20.021081626958228"><ele>152.0</ele><time>2026-04-29T08:24:17Z</time></trkpt><trkpt lat="41.12022093460239" lon="20.02104960072796"><ele>151.0</ele><time>2026-04-29T08:24:18Z</time></trkpt><trkpt lat="41.12032287161917" lon="20.02105792810577"><ele>150.0</ele><time>2026-04-29T08:24:19Z</time></trkpt><trkpt lat="41.12039710571156" lon="20.021091455658272"><ele>150.0</ele><time>2026-04-29T08:24:20Z</time></trkpt><trkpt lat="41.1204759159188" lon="20.021098113047998"><ele>150.0</ele><time>2026-04-29T08:24:21Z</time></trkpt><trkpt lat="41.12055113928091" lon="20.02115567581994"><ele>150.0</ele><time>2026-04-29T08:24:22Z</time></trkpt><trkpt lat="41.12064234136896" lon="20.021187159591562"><ele>150.0</ele><time>2026-04-29T08:24:23Z</time></trkpt><trkpt lat="41.12074230747502" lon="20.021167991002358"><ele>150.0</ele><time>2026-04-29T08:24:24Z</time></trkpt><trkpt lat="41.120846683575934" lon="20.02114047252869"><ele>148.2</ele><time>2026-04-29T08:24:25Z</time></trkpt><trkpt lat="41.12095553341642" lon="20.021107889088945"><ele>146.4</ele><time>2026-04-29T08:24:26Z</time></trkpt><trkpt lat="41.121062682430754" lon="20.02110218833816"><ele>144.6</ele><time>2026-04-29T08:24:27Z</time></trkpt><trkpt lat="41.12115248857587" lon="20.021106064462902"><ele>142.8</ele><time>2026-04-29T08:24:28Z</time></trkpt><trkpt lat="41.12123653296794" lon="20.021093367797175"><ele>141.0</ele><time>2026-04-29T08:24:29Z</time></trkpt><trkpt lat="41.1213248485998" lon="20.021066526707905"><ele>141.0</ele><time>2026-04-29T08:24:30Z</time></trkpt><trkpt lat="41.121403351498316" lon="20.02101940965306"><ele>141.0</ele><time>2026-04-29T08:24:31Z</time></trkpt><trkpt lat="41.12147679588055" lon="20.02094427161629"><ele>141.0</ele><time>2026-04-29T08:24:32Z</time></trkpt><trkpt lat="41.121553913164455" lon="20.02085780161536"><ele>141.0</ele><time>2026-04-29T08:24:33Z</time></trkpt><trkpt lat="41.12163564808089" lon="20.0207563603585"><ele>141.0</ele><time>2026-04-29T08:24:34Z</time></trkpt><trkpt lat="41.12172194560067" lon="20.02064549140199"><ele>142.0</ele><time>2026-04-29T08:24:35Z</time></trkpt><trkpt lat="41.12180645432738" lon="20.020538088935584"><ele>143.0</ele><time>2026-04-29T08:24:36Z</time></trkpt><trkpt lat="41.12187288007975" lon="20.020442813653688"><ele>144.0</ele><time>2026-04-29T08:24:37Z</time></trkpt><trkpt lat="41.12193310886629" lon="20.0203608288488"><ele>145.0</ele><time>2026-04-29T08:24:38Z</time></trkpt><trkpt lat="41.1219907156051" lon="20.020280912891597"><ele>146.0</ele><time>2026-04-29T08:24:39Z</time></trkpt><trkpt lat="41.12204521019049" lon="20.02020848888299"><ele>146.0</ele><time>2026-04-29T08:24:40Z</time></trkpt><trkpt lat="41.122108078067825" lon="20.020133164963543"><ele>146.0</ele><time>2026-04-29T08:24:41Z</time></trkpt><trkpt lat="41.12218355184296" lon="20.020102521475433"><ele>146.0</ele><time>2026-04-29T08:24:42Z</time></trkpt><trkpt lat="41.12225806429095" lon="20.020079942306467"><ele>146.0</ele><time>2026-04-29T08:24:43Z</time></trkpt><trkpt lat="41.12234261576902" lon="20.020056771314085"><ele>146.0</ele><time>2026-04-29T08:24:44Z</time></trkpt><trkpt lat="41.12243389029317" lon="20.020032201403517"><ele>146.0</ele><time>2026-04-29T08:24:45Z</time></trkpt><trkpt lat="41.12254405829431" lon="20.02001018371005"><ele>148.2</ele><time>2026-04-29T08:24:46Z</time></trkpt><trkpt lat="41.12265100249941" lon="20.019978511466814"><ele>150.39999999999998</ele><time>2026-04-29T08:24:47Z</time></trkpt><trkpt lat="41.12274828809854" lon="20.019948845490898"><ele>152.6</ele><time>2026-04-29T08:24:48Z</time></trkpt><trkpt lat="41.122834741141695" lon="20.01992338085463"><ele>154.79999999999998</ele><time>2026-04-29T08:24:49Z</time></trkpt><trkpt lat="41.12291829524264" lon="20.01989877009459"><ele>157.0</ele><time>2026-04-29T08:24:50Z</time></trkpt><trkpt lat="41.12300251901424" lon="20.019873896552642"><ele>157.0</ele><time>2026-04-29T08:24:51Z</time></trkpt><trkpt lat="41.123097358828446" lon="20.019845882814618"><ele>157.0</ele><time>2026-04-29T08:24:52Z</time></trkpt><trkpt lat="41.12319315010158" lon="20.019794562685963"><ele>157.0</ele><time>2026-04-29T08:24:53Z</time></trkpt><trkpt lat="41.12329086913921" lon="20.019783779646982"><ele>157.0</ele><time>2026-04-29T08:24:54Z</time></trkpt><trkpt lat="41.12338628433292" lon="20.019762484111975"><ele>157.0</ele><time>2026-04-29T08:24:55Z</time></trkpt><trkpt lat="41.12348683572412" lon="20.019785886510775"><ele>155.0</ele><time>2026-04-29T08:24:56Z</time></trkpt><trkpt lat="41.12359274234825" lon="20.019789188353826"><ele>153.0</ele><time>2026-04-29T08:24:57Z</time></trkpt><trkpt lat="41.123707713230104" lon="20.01978997660972"><ele>151.0</ele><time>2026-04-29T08:24:58Z</time></trkpt><trkpt lat="41.12381461205231" lon="20.019776919507585"><ele>149.0</ele><time>2026-04-29T08:24:59Z</time></trkpt><trkpt lat="41.12391568722534" lon="20.019777907429244"><ele>147.0</ele><time>2026-04-29T08:25:00Z</time></trkpt><trkpt lat="41.1240269334471" lon="20.019776840637487"><ele>144.75</ele><time>2026-04-29T08:25:01Z</time></trkpt><trkpt lat="41.12414314582518" lon="20.01977081156553"><ele>142.5</ele><time>2026-04-29T08:25:02Z</time></trkpt><trkpt lat="41.12426241914122" lon="20.019755409035227"><ele>140.25</ele><time>2026-04-29T08:25:03Z</time></trkpt><trkpt lat="41.12438656366605" lon="20.01975823758003"><ele>138.0</ele><time>2026-04-29T08:25:04Z</time></trkpt><trkpt lat="41.12452047274608" lon="20.01971331234522"><ele>138.0</ele><time>2026-04-29T08:25:05Z</time></trkpt><trkpt lat="41.124630137402995" lon="20.019699622709112"><ele>138.0</ele><time>2026-04-29T08:25:06Z</time></trkpt><trkpt lat="41.124743902120265" lon="20.019689000249397"><ele>138.0</ele><time>2026-04-29T08:25:07Z</time></trkpt><trkpt lat="41.12485170259966" lon="20.01968416183001"><ele>138.0</ele><time>2026-04-29T08:25:08Z</time></trkpt><trkpt lat="41.12495781438514" lon="20.01970375617161"><ele>138.0</ele><time>2026-04-29T08:25:09Z</time></trkpt><trkpt lat="41.12505586024337" lon="20.01970124762248"><ele>137.66666666666666</ele><time>2026-04-29T08:25:10Z</time></trkpt><trkpt lat="41.1251370860596" lon="20.019699168089335"><ele>137.33333333333334</ele><time>2026-04-29T08:25:11Z</time></trkpt><trkpt lat="41.125211552107444" lon="20.01967628223719"><ele>137.0</ele><time>2026-04-29T08:25:12Z</time></trkpt><trkpt lat="41.12527906607844" lon="20.019696663717692"><ele>136.66666666666669</ele><time>2026-04-29T08:25:13Z</time></trkpt><trkpt lat="41.12535725629634" lon="20.019683248580243"><ele>136.33333333333334</ele><time>2026-04-29T08:25:14Z</time></trkpt><trkpt lat="41.125446752508154" lon="20.01965232271703"><ele>136.0</ele><time>2026-04-29T08:25:15Z</time></trkpt><trkpt lat="41.125537879970146" lon="20.019611932146223"><ele>136.0</ele><time>2026-04-29T08:25:16Z</time></trkpt><trkpt lat="41.12563413762644" lon="20.019550781648906"><ele>136.0</ele><time>2026-04-29T08:25:17Z</time></trkpt><trkpt lat="41.12572356061518" lon="20.019490274675245"><ele>136.0</ele><time>2026-04-29T08:25:18Z</time></trkpt><trkpt lat="41.12578979485395" lon="20.019424937975693"><ele>136.0</ele><time>2026-04-29T08:25:19Z</time></trkpt><trkpt lat="41.12585182348048" lon="20.01936790220605"><ele>136.0</ele><time>2026-04-29T08:25:20Z</time></trkpt><trkpt lat="41.12592287268987" lon="20.019315994099347"><ele>136.0</ele><time>2026-04-29T08:25:21Z</time></trkpt><trkpt lat="41.12597327730467" lon="20.019202113815904"><ele>138.16666666666669</ele><time>2026-04-29T08:25:22Z</time></trkpt><trkpt lat="41.12603399175459" lon="20.019115673026704"><ele>140.33333333333334</ele><time>2026-04-29T08:25:23Z</time></trkpt><trkpt lat="41.12608007397828" lon="20.01904930171967"><ele>142.5</ele><time>2026-04-29T08:25:24Z</time></trkpt><trkpt lat="41.1261084384977" lon="20.01896320436318"><ele>144.66666666666666</ele><time>2026-04-29T08:25:25Z</time></trkpt><trkpt lat="41.12614790197656" lon="20.018882627613895"><ele>146.83333333333331</ele><time>2026-04-29T08:25:26Z</time></trkpt><trkpt lat="41.126186622955586" lon="20.018801106978735"><ele>149.0</ele><time>2026-04-29T08:25:27Z</time></trkpt><trkpt lat="41.12625279514076" lon="20.018719309119554"><ele>149.0</ele><time>2026-04-29T08:25:29Z</time></trkpt><trkpt lat="41.12636002217476" lon="20.018737939338493"><ele>149.0</ele><time>2026-04-29T08:25:31Z</time></trkpt><trkpt lat="41.12645707227821" lon="20.018763445734507"><ele>149.0</ele><time>2026-04-29T08:25:33Z</time></trkpt><trkpt lat="41.12653160080573" lon="20.018790919623058"><ele>149.0</ele><time>2026-04-29T08:25:34Z</time></trkpt><trkpt lat="41.12660806953452" lon="20.0187923117541"><ele>149.0</ele><time>2026-04-29T08:25:35Z</time></trkpt><trkpt lat="41.12672438638619" lon="20.018734047832563"><ele>148.66666666666666</ele><time>2026-04-29T08:25:37Z</time></trkpt><trkpt lat="41.12674576951321" lon="20.01863718594944"><ele>148.33333333333331</ele><time>2026-04-29T08:25:38Z</time></trkpt><trkpt lat="41.12676899717854" lon="20.018552078402873"><ele>148.0</ele><time>2026-04-29T08:25:39Z</time></trkpt><trkpt lat="41.12678440992805" lon="20.018454077432967"><ele>147.66666666666666</ele><time>2026-04-29T08:25:40Z</time></trkpt><trkpt lat="41.126876666113226" lon="20.018406883348455"><ele>147.33333333333334</ele><time>2026-04-29T08:25:41Z</time></trkpt><trkpt lat="41.1269364782096" lon="20.0183462612632"><ele>147.0</ele><time>2026-04-29T08:25:42Z</time></trkpt><trkpt lat="41.12707102051318" lon="20.01826472441441"><ele>148.0</ele><time>2026-04-29T08:25:44Z</time></trkpt><trkpt lat="41.12714516412832" lon="20.018206415282762"><ele>149.0</ele><time>2026-04-29T08:25:45Z</time></trkpt><trkpt lat="41.12721399701271" lon="20.018118640915443"><ele>150.0</ele><time>2026-04-29T08:25:46Z</time></trkpt><trkpt lat="41.127287743736105" lon="20.01804912885125"><ele>151.0</ele><time>2026-04-29T08:25:47Z</time></trkpt><trkpt lat="41.12734713325366" lon="20.01799766806232"><ele>152.0</ele><time>2026-04-29T08:25:48Z</time></trkpt><trkpt lat="41.127457928364" lon="20.01802932968247"><ele>152.0</ele><time>2026-04-29T08:25:50Z</time></trkpt><trkpt lat="41.12752441244614" lon="20.018054683243882"><ele>152.0</ele><time>2026-04-29T08:25:51Z</time></trkpt><trkpt lat="41.127605847245704" lon="20.018077784211"><ele>152.0</ele><time>2026-04-29T08:25:52Z</time></trkpt><trkpt lat="41.12771947971384" lon="20.01808178623597"><ele>152.0</ele><time>2026-04-29T08:25:54Z</time></trkpt><trkpt lat="41.12779825589942" lon="20.018068360627737"><ele>152.0</ele><time>2026-04-29T08:25:55Z</time></trkpt><trkpt lat="41.12788067244594" lon="20.01803157318262"><ele>152.0</ele><time>2026-04-29T08:25:56Z</time></trkpt><trkpt lat="41.127951319113684" lon="20.01799529228383"><ele>152.0</ele><time>2026-04-29T08:25:57Z</time></trkpt><trkpt lat="41.128018435675436" lon="20.017923009733774"><ele>152.0</ele><time>2026-04-29T08:25:58Z</time></trkpt><trkpt lat="41.12807322538249" lon="20.017867575130207"><ele>152.0</ele><time>2026-04-29T08:25:59Z</time></trkpt><trkpt lat="41.12812511813312" lon="20.017778151178675"><ele>152.0</ele><time>2026-04-29T08:26:00Z</time></trkpt><trkpt lat="41.1281808981248" lon="20.017699999239856"><ele>152.0</ele><time>2026-04-29T08:26:01Z</time></trkpt><trkpt lat="41.128188152334246" lon="20.01754433484205"><ele>152.0</ele><time>2026-04-29T08:26:02Z</time></trkpt><trkpt lat="41.12822044902717" lon="20.017429426784563"><ele>152.79999999999998</ele><time>2026-04-29T08:26:03Z</time></trkpt><trkpt lat="41.128253670834994" lon="20.017309686050048"><ele>153.6</ele><time>2026-04-29T08:26:04Z</time></trkpt><trkpt lat="41.1282893586996" lon="20.017181805611408"><ele>154.39999999999998</ele><time>2026-04-29T08:26:05Z</time></trkpt><trkpt lat="41.12832552190926" lon="20.017049239209545"><ele>155.2</ele><time>2026-04-29T08:26:06Z</time></trkpt><trkpt lat="41.12836957814077" lon="20.016958781628084"><ele>156.0</ele><time>2026-04-29T08:26:07Z</time></trkpt><trkpt lat="41.12841514936125" lon="20.01685184017751"><ele>156.0</ele><time>2026-04-29T08:26:08Z</time></trkpt><trkpt lat="41.128451757102546" lon="20.01677317843118"><ele>156.0</ele><time>2026-04-29T08:26:09Z</time></trkpt><trkpt lat="41.128523650354445" lon="20.016704009277422"><ele>156.0</ele><time>2026-04-29T08:26:11Z</time></trkpt><trkpt lat="41.1286149985199" lon="20.01669135525838"><ele>156.0</ele><time>2026-04-29T08:26:13Z</time></trkpt><trkpt lat="41.12866544152075" lon="20.016765568409937"><ele>156.0</ele><time>2026-04-29T08:26:14Z</time></trkpt><trkpt lat="41.12872386436837" lon="20.0168284954599"><ele>156.0</ele><time>2026-04-29T08:26:15Z</time></trkpt><trkpt lat="41.1287851338969" lon="20.016904189528898"><ele>156.0</ele><time>2026-04-29T08:26:16Z</time></trkpt><trkpt lat="41.12886891271257" lon="20.01694170738962"><ele>156.0</ele><time>2026-04-29T08:26:17Z</time></trkpt><trkpt lat="41.128962616217386" lon="20.016949716646685"><ele>156.0</ele><time>2026-04-29T08:26:18Z</time></trkpt><trkpt lat="41.12904580832921" lon="20.01694082101191"><ele>156.0</ele><time>2026-04-29T08:26:19Z</time></trkpt><trkpt lat="41.12914562820642" lon="20.016871919363883"><ele>156.0</ele><time>2026-04-29T08:26:20Z</time></trkpt><trkpt lat="41.12921681348288" lon="20.01676835608635"><ele>156.0</ele><time>2026-04-29T08:26:21Z</time></trkpt><trkpt lat="41.12929512408038" lon="20.016689255918404"><ele>156.0</ele><time>2026-04-29T08:26:22Z</time></trkpt><trkpt lat="41.129378473302545" lon="20.016595335809175"><ele>156.0</ele><time>2026-04-29T08:26:23Z</time></trkpt><trkpt lat="41.12947480171237" lon="20.016530759344672"><ele>156.0</ele><time>2026-04-29T08:26:24Z</time></trkpt><trkpt lat="41.12959708382999" lon="20.016531978527144"><ele>156.0</ele><time>2026-04-29T08:26:25Z</time></trkpt><trkpt lat="41.12968559249035" lon="20.016559181842467"><ele>157.0</ele><time>2026-04-29T08:26:26Z</time></trkpt><trkpt lat="41.129765387996414" lon="20.016520166533173"><ele>158.0</ele><time>2026-04-29T08:26:27Z</time></trkpt><trkpt lat="41.1298393718368" lon="20.016542929972402"><ele>159.0</ele><time>2026-04-29T08:26:28Z</time></trkpt><trkpt lat="41.129930469227254" lon="20.016545332518103"><ele>160.0</ele><time>2026-04-29T08:26:29Z</time></trkpt><trkpt lat="41.13002386728564" lon="20.016542330313946"><ele>161.0</ele><time>2026-04-29T08:26:30Z</time></trkpt><trkpt lat="41.13012738697741" lon="20.016603759586392"><ele>161.0</ele><time>2026-04-29T08:26:31Z</time></trkpt><trkpt lat="41.13019915160005" lon="20.016591599976227"><ele>161.0</ele><time>2026-04-29T08:26:32Z</time></trkpt><trkpt lat="41.130267245435654" lon="20.016578268055138"><ele>161.0</ele><time>2026-04-29T08:26:33Z</time></trkpt><trkpt lat="41.13033845127759" lon="20.016481300131577"><ele>161.0</ele><time>2026-04-29T08:26:34Z</time></trkpt><trkpt lat="41.13040310606888" lon="20.0163271020501"><ele>161.0</ele><time>2026-04-29T08:26:36Z</time></trkpt><trkpt lat="41.130353174848175" lon="20.01620630707105"><ele>161.0</ele><time>2026-04-29T08:26:37Z</time></trkpt><trkpt lat="41.130316758312865" lon="20.01612545209393"><ele>161.0</ele><time>2026-04-29T08:26:38Z</time></trkpt><trkpt lat="41.13026899100237" lon="20.01604238801379"><ele>161.0</ele><time>2026-04-29T08:26:39Z</time></trkpt><trkpt lat="41.13024056521755" lon="20.015916109363964"><ele>161.0</ele><time>2026-04-29T08:26:40Z</time></trkpt><trkpt lat="41.13019091477802" lon="20.015792597246758"><ele>161.0</ele><time>2026-04-29T08:26:41Z</time></trkpt><trkpt lat="41.13013734256543" lon="20.015657040446584"><ele>160.66666666666666</ele><time>2026-04-29T08:26:42Z</time></trkpt><trkpt lat="41.130075419244726" lon="20.01554779747812"><ele>160.33333333333331</ele><time>2026-04-29T08:26:43Z</time></trkpt><trkpt lat="41.13003952584135" lon="20.015459422389693"><ele>160.0</ele><time>2026-04-29T08:26:44Z</time></trkpt><trkpt lat="41.12999139284222" lon="20.015389237700425"><ele>159.66666666666666</ele><time>2026-04-29T08:26:45Z</time></trkpt><trkpt lat="41.12993270295731" lon="20.01532443485758"><ele>159.33333333333334</ele><time>2026-04-29T08:26:46Z</time></trkpt><trkpt lat="41.1298667509021" lon="20.015270317098597"><ele>159.0</ele><time>2026-04-29T08:26:47Z</time></trkpt><trkpt lat="41.129797423433445" lon="20.01522131173071"><ele>160.66666666666666</ele><time>2026-04-29T08:26:48Z</time></trkpt><trkpt lat="41.129728183493086" lon="20.015159248262133"><ele>162.33333333333334</ele><time>2026-04-29T08:26:49Z</time></trkpt><trkpt lat="41.12966894035386" lon="20.015082385512027"><ele>164.0</ele><time>2026-04-29T08:26:50Z</time></trkpt><trkpt lat="41.12962147565037" lon="20.014995761748818"><ele>165.66666666666669</ele><time>2026-04-29T08:26:51Z</time></trkpt><trkpt lat="41.12958243944546" lon="20.014883427616464"><ele>167.33333333333334</ele><time>2026-04-29T08:26:52Z</time></trkpt><trkpt lat="41.129534895650536" lon="20.01477680525006"><ele>169.0</ele><time>2026-04-29T08:26:53Z</time></trkpt><trkpt lat="41.12945097470296" lon="20.014694163568954"><ele>169.0</ele><time>2026-04-29T08:26:54Z</time></trkpt><trkpt lat="41.129378608218765" lon="20.014600596951254"><ele>169.0</ele><time>2026-04-29T08:26:55Z</time></trkpt><trkpt lat="41.12930221748533" lon="20.01450859047029"><ele>169.0</ele><time>2026-04-29T08:26:56Z</time></trkpt><trkpt lat="41.12922516049834" lon="20.014412966427084"><ele>169.0</ele><time>2026-04-29T08:26:57Z</time></trkpt><trkpt lat="41.129147031846436" lon="20.014311835677038"><ele>169.0</ele><time>2026-04-29T08:26:58Z</time></trkpt><trkpt lat="41.129092541180746" lon="20.014208393450637"><ele>175.16666666666669</ele><time>2026-04-29T08:26:59Z</time></trkpt><trkpt lat="41.129047651722466" lon="20.014132945647532"><ele>181.33333333333334</ele><time>2026-04-29T08:27:00Z</time></trkpt><trkpt lat="41.129013457608366" lon="20.014062509333876"><ele>187.5</ele><time>2026-04-29T08:27:01Z</time></trkpt><trkpt lat="41.129005657741736" lon="20.013927518232716"><ele>193.66666666666669</ele><time>2026-04-29T08:27:03Z</time></trkpt><trkpt lat="41.12901339286532" lon="20.013824965383428"><ele>199.83333333333334</ele><time>2026-04-29T08:27:04Z</time></trkpt><trkpt lat="41.12902383287874" lon="20.013710563752856"><ele>206.0</ele><time>2026-04-29T08:27:05Z</time></trkpt><trkpt lat="41.12904731857677" lon="20.013587435837668"><ele>201.83333333333334</ele><time>2026-04-29T08:27:06Z</time></trkpt><trkpt lat="41.12907861018231" lon="20.01346500042876"><ele>197.66666666666669</ele><time>2026-04-29T08:27:07Z</time></trkpt><trkpt lat="41.129113527492436" lon="20.013367001734547"><ele>193.5</ele><time>2026-04-29T08:27:08Z</time></trkpt><trkpt lat="41.129146324045365" lon="20.013273477321327"><ele>189.33333333333334</ele><time>2026-04-29T08:27:09Z</time></trkpt><trkpt lat="41.12923338037693" lon="20.01324484154326"><ele>185.16666666666669</ele><time>2026-04-29T08:27:10Z</time></trkpt><trkpt lat="41.12929513126685" lon="20.013203160331194"><ele>181.0</ele><time>2026-04-29T08:27:11Z</time></trkpt><trkpt lat="41.129344364692" lon="20.013144416667355"><ele>181.0</ele><time>2026-04-29T08:27:12Z</time></trkpt><trkpt lat="41.12940837134872" lon="20.013121764180397"><ele>181.0</ele><time>2026-04-29T08:27:13Z</time></trkpt><trkpt lat="41.129457855635806" lon="20.013058038616602"><ele>181.0</ele><time>2026-04-29T08:27:14Z</time></trkpt><trkpt lat="41.12951560967741" lon="20.013012567492446"><ele>181.0</ele><time>2026-04-29T08:27:15Z</time></trkpt><trkpt lat="41.12958071924025" lon="20.012983500643767"><ele>181.0</ele><time>2026-04-29T08:27:16Z</time></trkpt><trkpt lat="41.12963656479985" lon="20.01293604119968"><ele>181.0</ele><time>2026-04-29T08:27:17Z</time></trkpt><trkpt lat="41.129732667211954" lon="20.01285040343368"><ele>181.0</ele><time>2026-04-29T08:27:19Z</time></trkpt><trkpt lat="41.12972496139666" lon="20.012709751198095"><ele>181.0</ele><time>2026-04-29T08:27:20Z</time></trkpt><trkpt lat="41.12973973281163" lon="20.012619402267322"><ele>181.0</ele><time>2026-04-29T08:27:21Z</time></trkpt><trkpt lat="41.12974326112972" lon="20.0125284490498"><ele>181.0</ele><time>2026-04-29T08:27:22Z</time></trkpt><trkpt lat="41.12975835775974" lon="20.012444510313788"><ele>181.0</ele><time>2026-04-29T08:27:23Z</time></trkpt><trkpt lat="41.12976141820965" lon="20.012300417379468"><ele>181.0</ele><time>2026-04-29T08:27:25Z</time></trkpt><trkpt lat="41.12978158299742" lon="20.012181107141643"><ele>181.0</ele><time>2026-04-29T08:27:27Z</time></trkpt><trkpt lat="41.12983369749742" lon="20.012089077805644"><ele>181.0</ele><time>2026-04-29T08:27:29Z</time></trkpt><trkpt lat="41.129950452930714" lon="20.012060670963123"><ele>181.0</ele><time>2026-04-29T08:27:31Z</time></trkpt><trkpt lat="41.130070736533625" lon="20.012035161368004"><ele>181.0</ele><time>2026-04-29T08:27:33Z</time></trkpt><trkpt lat="41.13015175016597" lon="20.011941627271447"><ele>181.0</ele><time>2026-04-29T08:27:35Z</time></trkpt><trkpt lat="41.130177761244326" lon="20.011865123219764"><ele>180.16666666666669</ele><time>2026-04-29T08:27:36Z</time></trkpt><trkpt lat="41.130219466770704" lon="20.011789164279154"><ele>179.33333333333334</ele><time>2026-04-29T08:27:37Z</time></trkpt><trkpt lat="41.130232418566194" lon="20.01169886818583"><ele>178.5</ele><time>2026-04-29T08:27:38Z</time></trkpt><trkpt lat="41.130282820146626" lon="20.011625432864196"><ele>177.66666666666666</ele><time>2026-04-29T08:27:39Z</time></trkpt><trkpt lat="41.13033801947466" lon="20.011566240128516"><ele>176.83333333333331</ele><time>2026-04-29T08:27:40Z</time></trkpt><trkpt lat="41.13040318789116" lon="20.01151522885813"><ele>176.0</ele><time>2026-04-29T08:27:41Z</time></trkpt><trkpt lat="41.13051956450928" lon="20.01147313241642"><ele>176.0</ele><time>2026-04-29T08:27:43Z</time></trkpt><trkpt lat="41.13063548043352" lon="20.01151905653339"><ele>176.0</ele><time>2026-04-29T08:27:45Z</time></trkpt><trkpt lat="41.130694105092985" lon="20.011578084436408"><ele>176.0</ele><time>2026-04-29T08:27:46Z</time></trkpt><trkpt lat="41.1307393476473" lon="20.011647463924483"><ele>176.0</ele><time>2026-04-29T08:27:47Z</time></trkpt><trkpt lat="41.130783587337994" lon="20.011722105062425"><ele>176.0</ele><time>2026-04-29T08:27:48Z</time></trkpt><trkpt lat="41.13082271071089" lon="20.011799231883856"><ele>176.0</ele><time>2026-04-29T08:27:49Z</time></trkpt><trkpt lat="41.13086434770318" lon="20.01187071971789"><ele>172.83333333333331</ele><time>2026-04-29T08:27:50Z</time></trkpt><trkpt lat="41.130917353200374" lon="20.011916862938843"><ele>169.66666666666666</ele><time>2026-04-29T08:27:51Z</time></trkpt><trkpt lat="41.13099246021573" lon="20.011950238927888"><ele>166.5</ele><time>2026-04-29T08:27:52Z</time></trkpt><trkpt lat="41.13108064326368" lon="20.011963758606186"><ele>163.33333333333334</ele><time>2026-04-29T08:27:53Z</time></trkpt><trkpt lat="41.131175669192245" lon="20.011958718792247"><ele>160.16666666666669</ele><time>2026-04-29T08:27:54Z</time></trkpt><trkpt lat="41.131254206126684" lon="20.011939599942796"><ele>157.0</ele><time>2026-04-29T08:27:55Z</time></trkpt><trkpt lat="41.13133143911276" lon="20.011925406767357"><ele>157.0</ele><time>2026-04-29T08:27:56Z</time></trkpt><trkpt lat="41.131400613905804" lon="20.011913641923798"><ele>157.0</ele><time>2026-04-29T08:27:57Z</time></trkpt><trkpt lat="41.131482005094405" lon="20.01184236381837"><ele>157.0</ele><time>2026-04-29T08:27:59Z</time></trkpt><trkpt lat="41.131537700267664" lon="20.01169025258396"><ele>157.0</ele><time>2026-04-29T08:28:01Z</time></trkpt><trkpt lat="41.131509076079865" lon="20.011581827801567"><ele>157.0</ele><time>2026-04-29T08:28:02Z</time></trkpt><trkpt lat="41.13145538295066" lon="20.011486369801304"><ele>156.33333333333334</ele><time>2026-04-29T08:28:03Z</time></trkpt><trkpt lat="41.13145971460212" lon="20.01137915989346"><ele>155.66666666666669</ele><time>2026-04-29T08:28:04Z</time></trkpt><trkpt lat="41.13145004641094" lon="20.011290226158696"><ele>155.0</ele><time>2026-04-29T08:28:05Z</time></trkpt><trkpt lat="41.131469985723164" lon="20.011207158137708"><ele>154.33333333333334</ele><time>2026-04-29T08:28:06Z</time></trkpt><trkpt lat="41.13147727946971" lon="20.01108201425308"><ele>153.66666666666666</ele><time>2026-04-29T08:28:07Z</time></trkpt><trkpt lat="41.13153163979662" lon="20.011003635589475"><ele>153.0</ele><time>2026-04-29T08:28:08Z</time></trkpt><trkpt lat="41.13157621019505" lon="20.010921242882862"><ele>153.0</ele><time>2026-04-29T08:28:09Z</time></trkpt><trkpt lat="41.131619847355246" lon="20.010840603985205"><ele>153.0</ele><time>2026-04-29T08:28:10Z</time></trkpt><trkpt lat="41.13166578864998" lon="20.010755707209682"><ele>153.0</ele><time>2026-04-29T08:28:11Z</time></trkpt><trkpt lat="41.131706204607774" lon="20.010681020726622"><ele>153.0</ele><time>2026-04-29T08:28:12Z</time></trkpt><trkpt lat="41.13176250186911" lon="20.010607576976945"><ele>153.0</ele><time>2026-04-29T08:28:13Z</time></trkpt><trkpt lat="41.1318299100622" lon="20.01052185997823"><ele>153.0</ele><time>2026-04-29T08:28:14Z</time></trkpt><trkpt lat="41.131890419018696" lon="20.01045924211268"><ele>153.66666666666666</ele><time>2026-04-29T08:28:15Z</time></trkpt><trkpt lat="41.131946237381236" lon="20.01040903731981"><ele>154.33333333333334</ele><time>2026-04-29T08:28:16Z</time></trkpt><trkpt lat="41.13205308886656" lon="20.01033063931016"><ele>155.0</ele><time>2026-04-29T08:28:18Z</time></trkpt><trkpt lat="41.132127978929006" lon="20.010347455047842"><ele>155.66666666666669</ele><time>2026-04-29T08:28:19Z</time></trkpt><trkpt lat="41.13220876626627" lon="20.010359315747216"><ele>156.33333333333334</ele><time>2026-04-29T08:28:20Z</time></trkpt><trkpt lat="41.13227183743359" lon="20.010406314184277"><ele>157.0</ele><time>2026-04-29T08:28:21Z</time></trkpt><trkpt lat="41.13234085722812" lon="20.010454292336217"><ele>157.0</ele><time>2026-04-29T08:28:22Z</time></trkpt><trkpt lat="41.132421942440224" lon="20.010515214044098"><ele>157.0</ele><time>2026-04-29T08:28:23Z</time></trkpt><trkpt lat="41.13250654134214" lon="20.010578618175217"><ele>157.0</ele><time>2026-04-29T08:28:24Z</time></trkpt><trkpt lat="41.1325900754764" lon="20.01064037017676"><ele>157.0</ele><time>2026-04-29T08:28:25Z</time></trkpt><trkpt lat="41.13266792802404" lon="20.01069108873427"><ele>157.0</ele><time>2026-04-29T08:28:26Z</time></trkpt><trkpt lat="41.132744852050315" lon="20.010738834626935"><ele>157.0</ele><time>2026-04-29T08:28:27Z</time></trkpt><trkpt lat="41.132829056301915" lon="20.010790966962364"><ele>157.0</ele><time>2026-04-29T08:28:28Z</time></trkpt><trkpt lat="41.13291665983334" lon="20.010843947488482"><ele>157.0</ele><time>2026-04-29T08:28:29Z</time></trkpt><trkpt lat="41.13301788446561" lon="20.010869632176654"><ele>157.0</ele><time>2026-04-29T08:28:30Z</time></trkpt><trkpt lat="41.13311433786761" lon="20.010873631292835"><ele>157.0</ele><time>2026-04-29T08:28:31Z</time></trkpt><trkpt lat="41.13331036091546" lon="20.010846198917694"><ele>156.4</ele><time>2026-04-29T08:28:33Z</time></trkpt><trkpt lat="41.13340585896849" lon="20.01079077565369"><ele>155.79999999999998</ele><time>2026-04-29T08:28:34Z</time></trkpt><trkpt lat="41.13348076396612" lon="20.010767813395216"><ele>155.2</ele><time>2026-04-29T08:28:35Z</time></trkpt><trkpt lat="41.13354917836024" lon="20.010783491778533"><ele>154.6</ele><time>2026-04-29T08:28:36Z</time></trkpt><trkpt lat="41.13361252143382" lon="20.010783132881528"><ele>154.0</ele><time>2026-04-29T08:28:37Z</time></trkpt><trkpt lat="41.13368168843309" lon="20.010942969200865"><ele>154.0</ele><time>2026-04-29T08:28:39Z</time></trkpt><trkpt lat="41.133766425080935" lon="20.011039148895083"><ele>154.0</ele><time>2026-04-29T08:28:40Z</time></trkpt><trkpt lat="41.133853631426064" lon="20.011164825451463"><ele>154.0</ele><time>2026-04-29T08:28:41Z</time></trkpt><trkpt lat="41.133943435107604" lon="20.01129805363303"><ele>154.0</ele><time>2026-04-29T08:28:42Z</time></trkpt><trkpt lat="41.13401614923635" lon="20.011395193365704"><ele>155.16666666666669</ele><time>2026-04-29T08:28:43Z</time></trkpt><trkpt lat="41.13407505559245" lon="20.01147873816013"><ele>156.33333333333334</ele><time>2026-04-29T08:28:44Z</time></trkpt><trkpt lat="41.134138949422855" lon="20.011565987571604"><ele>157.5</ele><time>2026-04-29T08:28:45Z</time></trkpt><trkpt lat="41.13419761868615" lon="20.01166941421135"><ele>158.66666666666666</ele><time>2026-04-29T08:28:46Z</time></trkpt><trkpt lat="41.13423133850183" lon="20.011773582199293"><ele>159.83333333333331</ele><time>2026-04-29T08:28:47Z</time></trkpt><trkpt lat="41.134250699498196" lon="20.011884131936462"><ele>161.0</ele><time>2026-04-29T08:28:48Z</time></trkpt><trkpt lat="41.13425731687768" lon="20.01200370442396"><ele>161.0</ele><time>2026-04-29T08:28:49Z</time></trkpt><trkpt lat="41.134259831239156" lon="20.01213279437905"><ele>161.0</ele><time>2026-04-29T08:28:50Z</time></trkpt><trkpt lat="41.13425555777186" lon="20.01226266137955"><ele>161.0</ele><time>2026-04-29T08:28:51Z</time></trkpt><trkpt lat="41.13425435975417" lon="20.01239623873826"><ele>161.0</ele><time>2026-04-29T08:28:52Z</time></trkpt><trkpt lat="41.13425097240665" lon="20.01252471633216"><ele>161.0</ele><time>2026-04-29T08:28:53Z</time></trkpt><trkpt lat="41.134255473435445" lon="20.012622909101818"><ele>161.5</ele><time>2026-04-29T08:28:54Z</time></trkpt><trkpt lat="41.134280131241255" lon="20.01270849535538"><ele>162.0</ele><time>2026-04-29T08:28:55Z</time></trkpt><trkpt lat="41.134332422539664" lon="20.012768837407258"><ele>162.5</ele><time>2026-04-29T08:28:56Z</time></trkpt><trkpt lat="41.13439691960042" lon="20.012797634743887"><ele>163.0</ele><time>2026-04-29T08:28:57Z</time></trkpt><trkpt lat="41.13447017609563" lon="20.012804628254646"><ele>163.5</ele><time>2026-04-29T08:28:58Z</time></trkpt><trkpt lat="41.134593423017236" lon="20.012735468643957"><ele>164.0</ele><time>2026-04-29T08:29:00Z</time></trkpt><trkpt lat="41.1346812676261" lon="20.01270472253369"><ele>164.0</ele><time>2026-04-29T08:29:01Z</time></trkpt><trkpt lat="41.13477156925056" lon="20.012658886773504"><ele>164.0</ele><time>2026-04-29T08:29:02Z</time></trkpt><trkpt lat="41.134869558867585" lon="20.01260914706997"><ele>164.0</ele><time>2026-04-29T08:29:03Z</time></trkpt><trkpt lat="41.13497120887227" lon="20.012557548609998"><ele>164.0</ele><time>2026-04-29T08:29:04Z</time></trkpt><trkpt lat="41.13508194703005" lon="20.012501725306244"><ele>164.0</ele><time>2026-04-29T08:29:05Z</time></trkpt><trkpt lat="41.13521388519609" lon="20.012434537487916"><ele>165.79999999999998</ele><time>2026-04-29T08:29:06Z</time></trkpt><trkpt lat="41.13533570590338" lon="20.01236775908688"><ele>167.6</ele><time>2026-04-29T08:29:07Z</time></trkpt><trkpt lat="41.135425633582955" lon="20.012317529664745"><ele>169.4</ele><time>2026-04-29T08:29:08Z</time></trkpt><trkpt lat="41.135508833754855" lon="20.012271058118824"><ele>171.2</ele><time>2026-04-29T08:29:09Z</time></trkpt><trkpt lat="41.13557696821093" lon="20.012231562156163"><ele>173.0</ele><time>2026-04-29T08:29:10Z</time></trkpt><trkpt lat="41.13566174006588" lon="20.012214342743835"><ele>175.4</ele><time>2026-04-29T08:29:12Z</time></trkpt><trkpt lat="41.13574590863272" lon="20.012331766567975"><ele>177.8</ele><time>2026-04-29T08:29:14Z</time></trkpt><trkpt lat="41.135791402824" lon="20.012406654479353"><ele>180.2</ele><time>2026-04-29T08:29:15Z</time></trkpt><trkpt lat="41.13589348742756" lon="20.012500616364484"><ele>182.6</ele><time>2026-04-29T08:29:17Z</time></trkpt><trkpt lat="41.13598219558888" lon="20.01252239198544"><ele>185.0</ele><time>2026-04-29T08:29:18Z</time></trkpt><trkpt lat="41.136083489343314" lon="20.01255481736677"><ele>185.0</ele><time>2026-04-29T08:29:19Z</time></trkpt><trkpt lat="41.13617647055314" lon="20.012560030941316"><ele>185.0</ele><time>2026-04-29T08:29:20Z</time></trkpt><trkpt lat="41.136273444178585" lon="20.012563997040157"><ele>185.0</ele><time>2026-04-29T08:29:21Z</time></trkpt><trkpt lat="41.13637106931259" lon="20.012553475768183"><ele>185.0</ele><time>2026-04-29T08:29:22Z</time></trkpt><trkpt lat="41.13645302990097" lon="20.01255711759295"><ele>185.0</ele><time>2026-04-29T08:29:23Z</time></trkpt><trkpt lat="41.1365396136905" lon="20.012543688739974"><ele>184.2</ele><time>2026-04-29T08:29:24Z</time></trkpt><trkpt lat="41.13663733144454" lon="20.012535991125958"><ele>183.4</ele><time>2026-04-29T08:29:25Z</time></trkpt><trkpt lat="41.13673104748065" lon="20.012510678633777"><ele>182.60000000000002</ele><time>2026-04-29T08:29:26Z</time></trkpt><trkpt lat="41.1368303126517" lon="20.01247538688675"><ele>181.8</ele><time>2026-04-29T08:29:27Z</time></trkpt><trkpt lat="41.13691516091485" lon="20.01246576235026"><ele>181.0</ele><time>2026-04-29T08:29:28Z</time></trkpt><trkpt lat="41.136985993248295" lon="20.01248212319697"><ele>181.0</ele><time>2026-04-29T08:29:29Z</time></trkpt><trkpt lat="41.13705916925162" lon="20.01249626499852"><ele>181.0</ele><time>2026-04-29T08:29:30Z</time></trkpt><trkpt lat="41.137136131761444" lon="20.01249641365437"><ele>181.0</ele><time>2026-04-29T08:29:31Z</time></trkpt><trkpt lat="41.13722609076027" lon="20.01247988649746"><ele>181.0</ele><time>2026-04-29T08:29:32Z</time></trkpt><trkpt lat="41.13732360556765" lon="20.012446563958278"><ele>181.0</ele><time>2026-04-29T08:29:33Z</time></trkpt><trkpt lat="41.137414740553304" lon="20.012402347491918"><ele>181.0</ele><time>2026-04-29T08:29:34Z</time></trkpt><trkpt lat="41.13749411583363" lon="20.012369291579954"><ele>181.5</ele><time>2026-04-29T08:29:35Z</time></trkpt><trkpt lat="41.13756986373665" lon="20.012338236896703"><ele>182.0</ele><time>2026-04-29T08:29:36Z</time></trkpt><trkpt lat="41.137647352388605" lon="20.012305208460727"><ele>182.5</ele><time>2026-04-29T08:29:37Z</time></trkpt><trkpt lat="41.13771900510544" lon="20.012278534857536"><ele>183.0</ele><time>2026-04-29T08:29:38Z</time></trkpt><trkpt lat="41.137853953115055" lon="20.012255837267702"><ele>183.5</ele><time>2026-04-29T08:29:40Z</time></trkpt><trkpt lat="41.1379244272386" lon="20.012224092266933"><ele>184.0</ele><time>2026-04-29T08:29:41Z</time></trkpt><trkpt lat="41.13798416152741" lon="20.012179577249295"><ele>184.0</ele><time>2026-04-29T08:29:42Z</time></trkpt><trkpt lat="41.13803814163188" lon="20.012122828177777"><ele>184.0</ele><time>2026-04-29T08:29:43Z</time></trkpt><trkpt lat="41.138068900895306" lon="20.012042805822833"><ele>184.0</ele><time>2026-04-29T08:29:44.001Z</time></trkpt><trkpt lat="41.13809216247709" lon="20.01193274920015"><ele>184.0</ele><time>2026-04-29T08:29:45Z</time></trkpt><trkpt lat="41.13811205677959" lon="20.011790757635808"><ele>184.0</ele><time>2026-04-29T08:29:46Z</time></trkpt><trkpt lat="41.138131603758225" lon="20.01167855537022"><ele>184.0</ele><time>2026-04-29T08:29:47Z</time></trkpt><trkpt lat="41.13814639111145" lon="20.011573646119057"><ele>184.39999999999998</ele><time>2026-04-29T08:29:48Z</time></trkpt><trkpt lat="41.13817054657238" lon="20.011474265186788"><ele>184.8</ele><time>2026-04-29T08:29:49Z</time></trkpt><trkpt lat="41.13821976825009" lon="20.01139464781622"><ele>185.2</ele><time>2026-04-29T08:29:50Z</time></trkpt><trkpt lat="41.13829962831451" lon="20.01135947793023"><ele>185.60000000000002</ele><time>2026-04-29T08:29:51Z</time></trkpt><trkpt lat="41.13838735848551" lon="20.01130241888793"><ele>186.0</ele><time>2026-04-29T08:29:52Z</time></trkpt><trkpt lat="41.138495120192886" lon="20.011238178990563"><ele>182.25</ele><time>2026-04-29T08:29:53Z</time></trkpt><trkpt lat="41.13859324793216" lon="20.011170505588026"><ele>178.5</ele><time>2026-04-29T08:29:54Z</time></trkpt><trkpt lat="41.138682712816376" lon="20.011098883252625"><ele>174.75</ele><time>2026-04-29T08:29:55Z</time></trkpt><trkpt lat="41.13875845385278" lon="20.010970579742054"><ele>171.0</ele><time>2026-04-29T08:29:56Z</time></trkpt><trkpt lat="41.13885223261766" lon="20.010854718112213"><ele>172.0</ele><time>2026-04-29T08:29:57Z</time></trkpt><trkpt lat="41.138941448663545" lon="20.01076264236842"><ele>173.0</ele><time>2026-04-29T08:29:58Z</time></trkpt><trkpt lat="41.139033954194026" lon="20.01068683556409"><ele>174.0</ele><time>2026-04-29T08:29:59Z</time></trkpt><trkpt lat="41.13909501068306" lon="20.01064307389617"><ele>175.0</ele><time>2026-04-29T08:30:00Z</time></trkpt><trkpt lat="41.139160714096576" lon="20.0106312204188"><ele>176.0</ele><time>2026-04-29T08:30:02Z</time></trkpt><trkpt lat="41.13923950558302" lon="20.0106920938608"><ele>177.0</ele><time>2026-04-29T08:30:05Z</time></trkpt><trkpt lat="41.139310676721294" lon="20.010708491491872"><ele>177.0</ele><time>2026-04-29T08:30:07Z</time></trkpt><trkpt lat="41.13939679010976" lon="20.010774312521082"><ele>177.0</ele><time>2026-04-29T08:30:43Z</time></trkpt><trkpt lat="41.13951526305058" lon="20.010863325212057"><ele>177.0</ele><time>2026-04-29T08:30:45Z</time></trkpt><trkpt lat="41.13957195610012" lon="20.01091552719395"><ele>177.0</ele><time>2026-04-29T08:30:46Z</time></trkpt><trkpt lat="41.139625544048606" lon="20.010963987499483"><ele>177.0</ele><time>2026-04-29T08:30:47Z</time></trkpt><trkpt lat="41.13967836552363" lon="20.011011977531595"><ele>177.0</ele><time>2026-04-29T08:30:48Z</time></trkpt><trkpt lat="41.139730802591856" lon="20.01105992937613"><ele>175.8</ele><time>2026-04-29T08:30:49Z</time></trkpt><trkpt lat="41.139836068697406" lon="20.011155718712242"><ele>174.6</ele><time>2026-04-29T08:30:51Z</time></trkpt><trkpt lat="41.139898947544175" lon="20.011212841740853"><ele>173.4</ele><time>2026-04-29T08:30:52Z</time></trkpt><trkpt lat="41.13998874413247" lon="20.011293878677968"><ele>172.20000000000002</ele><time>2026-04-29T08:30:54Z</time></trkpt><trkpt lat="41.140082159621166" lon="20.011377543908388"><ele>171.0</ele><time>2026-04-29T08:30:56Z</time></trkpt><trkpt lat="41.14014245296652" lon="20.011442291030146"><ele>171.0</ele><time>2026-04-29T08:30:57Z</time></trkpt><trkpt lat="41.14019380029992" lon="20.01150490474521"><ele>171.0</ele><time>2026-04-29T08:30:59Z</time></trkpt></trkseg></trk></gpx>